Time,TemperatureF,DewpointF,PressureIn,WindDirection,WindDirectionDegrees,WindSpeedMPH,WindSpeedGustMPH,Humidity,HourlyPrecipIn,Conditions,Clouds,dailyrainin,SolarRadiationWatts/m^2,SoftwareType,DateUTC
2013-02-22 00:01:00,32.4,25.7,30.08,ENE,70,1.1,0.0,76,0.00,,,0.00,0.0,WeatherDisplay:10.37,2013-02-22 08:01:00,
2013-02-22 00:04:00,32.4,25.7,30.08,ENE,70,2.3,2.3,76,0.00,,,0.00,0.0,WeatherDisplay:10.37,2013-02-22 08:04:00,
2013-02-22 00:06:00,32.3,25.3,30.08,ESE,111,4.0,4.0,75,0.00,,,0.00,0.0,WeatherDisplay:10.37,2013-02-22 08:06:00,
2013-02-22 00:09:00,32.3,25.3,30.08,ESE,111,3.5,3.5,75,0.00,,,0.00,0.0,WeatherDisplay:10.37,2013-02-22 08:09:00,
2013-02-22 00:11:00,32.3,25.3,30.08,ESE,111,2.3,2.3,75,0.00,,,0.00,0.0,WeatherDisplay:10.37,2013-02-22 08:11:00,
2013-02-22 00:12:00,32.3,25.3,30.08,ESE,111,1.1,0.0,75,0.00,,,0.00,0.0,WeatherDisplay:10.37,2013-02-22 08:12:00,
2013-02-22 00:14:00,32.3,25.3,30.08,ESE,111,0.0,0.1,75,0.00,,,0.00,0.0,WeatherDisplay:10.37,2013-02-22 08:14:00,
2013-02-22 00:17:00,32.2,25.2,30.08,ESE,111,0.0,0.0,75,0.00,,,0.00,0.0,WeatherDisplay:10.37,2013-02-22 08:17:00,
2013-02-22 00:19:00,32.2,25.2,30.08,ESE,111,0.0,0.0,75,0.00,,,0.00,0.0,WeatherDisplay:10.37,2013-02-22 08:19:00,
2013-02-22 00:22:00,32.2,25.2,30.08,ESE,111,1.1,1.1,75,0.00,,,0.00,0.0,WeatherDisplay:10.37,2013-02-22 08:22:00,
2013-02-22 00:23:00,32.2,25.2,30.08,ESE,111,1.1,0.0,75,0.00,,,0.00,0.0,WeatherDisplay:10.37,2013-02-22 08:23:00,
2013-02-22 00:24:00,32.2,25.5,30.08,ESE,111,1.1,1.1,76,0.00,,,0.00,0.0,WeatherDisplay:10.37,2013-02-22 08:24:00,
2013-02-22 00:27:00,32.2,25.5,30.08,ESE,111,2.3,2.3,76,0.00,,,0.00,0.0,WeatherDisplay:10.37,2013-02-22 08:27:00,
2013-02-22 00:28:00,32.2,25.5,30.08,ESE,111,2.3,2.3,76,0.00,,,0.00,0.0,WeatherDisplay:10.37,2013-02-22 08:28:00,
2013-02-22 00:30:00,32.2,25.5,30.08,ESE,111,1.1,0.0,76,0.00,,,0.00,0.0,WeatherDisplay:10.37,2013-02-22 08:30:00,
2013-02-22 00:32:00,32.1,25.4,30.08,ESE,111,0.0,0.0,76,0.00,,,0.00,0.0,WeatherDisplay:10.37,2013-02-22 08:32:00,
2013-02-22 00:33:00,32.2,25.5,30.08,ESE,111,0.0,0.0,76,0.00,,,0.00,0.0,WeatherDisplay:10.37,2013-02-22 08:33:00,
2013-02-22 00:35:00,32.1,25.4,30.08,ESE,111,0.0,0.0,76,0.00,,,0.00,0.0,WeatherDisplay:10.37,2013-02-22 08:35:00,
2013-02-22 00:37:00,32.1,25.4,30.08,ESE,111,0.0,0.0,76,0.00,,,0.00,0.0,WeatherDisplay:10.37,2013-02-22 08:37:00,
2013-02-22 00:38:00,32.1,25.4,30.08,ESE,111,0.0,0.1,76,0.00,,,0.00,0.0,WeatherDisplay:10.37,2013-02-22 08:38:00,
2013-02-22 00:40:00,32.1,25.4,30.08,ESE,111,2.3,2.3,76,0.00,,,0.00,0.0,WeatherDisplay:10.37,2013-02-22 08:40:00,
2013-02-22 00:42:00,32.1,25.4,30.08,ESE,111,0.0,0.0,76,0.00,,,0.00,0.0,WeatherDisplay:10.37,2013-02-22 08:42:00,
2013-02-22 00:43:00,32.1,25.4,30.08,ESE,111,0.0,0.0,76,0.00,,,0.00,0.0,WeatherDisplay:10.37,2013-02-22 08:43:00,
2013-02-22 00:44:00,32.1,25.4,30.08,ESE,111,0.0,0.0,76,0.00,,,0.00,0.0,WeatherDisplay:10.37,2013-02-22 08:44:00,
2013-02-22 00:45:00,32.1,25.4,30.08,ESE,111,0.0,0.0,76,0.00,,,0.00,0.0,WeatherDisplay:10.37,2013-02-22 08:45:00,
2013-02-22 00:48:00,32.1,25.4,30.08,ESE,111,2.3,2.3,76,0.00,,,0.00,0.0,WeatherDisplay:10.37,2013-02-22 08:48:00,
2013-02-22 00:50:00,32.1,25.4,30.08,ESE,111,1.1,0.0,76,0.00,,,0.00,0.0,WeatherDisplay:10.37,2013-02-22 08:50:00,
2013-02-22 00:51:00,32.1,25.4,30.08,ESE,111,2.0,2.0,76,0.00,,,0.00,0.0,WeatherDisplay:10.37,2013-02-22 08:51:00,
2013-02-22 00:53:00,32.1,25.4,30.08,ESE,111,2.3,2.3,76,0.00,,,0.00,0.0,WeatherDisplay:10.37,2013-02-22 08:53:00,
2013-02-22 00:55:00,32.1,25.4,30.08,ESE,111,0.0,0.0,76,0.00,,,0.00,0.0,WeatherDisplay:10.37,2013-02-22 08:55:00,
2013-02-22 00:56:00,32.1,25.4,30.08,ESE,111,1.1,0.0,76,0.00,,,0.00,0.0,WeatherDisplay:10.37,2013-02-22 08:56:00,
2013-02-22 00:58:00,32.2,25.5,30.08,ESE,111,2.3,2.3,76,0.00,,,0.00,0.0,WeatherDisplay:10.37,2013-02-22 08:58:00,
2013-02-22 00:59:00,32.2,25.5,30.08,ESE,111,1.1,0.0,76,0.00,,,0.00,0.0,WeatherDisplay:10.37,2013-02-22 08:59:00,
2013-02-22 01:00:00,32.2,25.5,30.08,ESE,111,0.0,0.0,76,0.00,,,0.00,0.0,WeatherDisplay:10.37,2013-02-22 09:00:00,
2013-02-22 01:01:00,32.2,25.5,30.08,ESE,111,1.0,1.0,76,0.00,,,0.00,0.0,WeatherDisplay:10.37,2013-02-22 09:01:00,
2013-02-22 01:04:00,32.2,25.5,30.08,ESE,110,3.5,3.5,76,0.00,,,0.00,0.0,WeatherDisplay:10.37,2013-02-22 09:04:00,
2013-02-22 01:05:00,32.2,25.5,30.08,ESE,110,2.3,0.0,76,0.00,,,0.00,0.0,WeatherDisplay:10.37,2013-02-22 09:05:00,
2013-02-22 01:06:00,32.2,25.5,30.08,ESE,110,0.0,0.0,76,0.00,,,0.00,0.0,WeatherDisplay:10.37,2013-02-22 09:06:00,
2013-02-22 01:09:00,32.2,25.8,30.08,ESE,110,0.0,0.0,77,0.00,,,0.00,0.0,WeatherDisplay:10.37,2013-02-22 09:09:00,
2013-02-22 01:10:00,32.2,25.8,30.08,ESE,110,1.0,0.0,77,0.00,,,0.00,0.0,WeatherDisplay:10.37,2013-02-22 09:10:00,
2013-02-22 01:11:00,32.2,25.8,30.08,ESE,110,1.1,1.1,77,0.00,,,0.00,0.0,WeatherDisplay:10.37,2013-02-22 09:11:00,
2013-02-22 01:15:00,32.1,25.7,30.08,ESE,110,0.0,0.0,77,0.00,,,0.00,0.0,WeatherDisplay:10.37,2013-02-22 09:15:00,
2013-02-22 01:16:00,32.1,25.7,30.08,ESE,110,1.1,1.1,77,0.00,,,0.00,0.0,WeatherDisplay:10.37,2013-02-22 09:16:00,
2013-02-22 01:20:00,32.0,25.6,30.08,ESE,110,0.0,0.0,77,0.00,,,0.00,0.0,WeatherDisplay:10.37,2013-02-22 09:20:00,
2013-02-22 01:21:00,32.0,25.9,30.08,ESE,110,0.0,0.0,78,0.00,,,0.00,0.0,WeatherDisplay:10.37,2013-02-22 09:21:00,
2013-02-22 01:25:00,31.9,25.8,30.08,ESE,110,3.5,3.5,78,0.00,,,0.00,0.0,WeatherDisplay:10.37,2013-02-22 09:25:00,
2013-02-22 01:26:00,31.9,25.8,30.08,ESE,110,3.5,3.5,78,0.00,,,0.00,0.0,WeatherDisplay:10.37,2013-02-22 09:26:00,
2013-02-22 01:27:00,31.9,25.8,30.08,ESE,110,2.3,2.3,78,0.00,,,0.00,0.0,WeatherDisplay:10.37,2013-02-22 09:27:00,
2013-02-22 01:31:00,31.9,25.8,30.08,ESE,110,2.3,2.3,78,0.00,,,0.00,0.0,WeatherDisplay:10.37,2013-02-22 09:31:00,
2013-02-22 01:32:00,31.8,25.7,30.08,ESE,110,2.3,2.3,78,0.00,,,0.00,0.0,WeatherDisplay:10.37,2013-02-22 09:32:00,
2013-02-22 01:36:00,31.8,26.0,30.08,ESE,110,1.1,1.1,79,0.00,,,0.00,0.0,WeatherDisplay:10.37,2013-02-22 09:36:00,
2013-02-22 01:37:00,31.8,25.7,30.08,ESE,110,1.1,1.1,78,0.00,,,0.00,0.0,WeatherDisplay:10.37,2013-02-22 09:37:00,
2013-02-22 01:41:00,31.9,25.8,30.07,ESE,110,2.3,2.3,78,0.00,,,0.00,0.0,WeatherDisplay:10.37,2013-02-22 09:41:00,
2013-02-22 01:42:00,31.8,25.7,30.07,ESE,110,2.3,2.3,78,0.00,,,0.00,0.0,WeatherDisplay:10.37,2013-02-22 09:42:00,
2013-02-22 01:46:00,31.8,25.7,30.07,ESE,110,1.1,1.1,78,0.00,,,0.00,0.0,WeatherDisplay:10.37,2013-02-22 09:46:00,
2013-02-22 01:47:00,31.8,25.7,30.07,ESE,110,0.0,0.0,78,0.00,,,0.00,0.0,WeatherDisplay:10.37,2013-02-22 09:47:00,
2013-02-22 01:51:00,31.8,25.4,30.07,ESE,110,2.0,2.0,77,0.00,,,0.00,0.0,WeatherDisplay:10.37,2013-02-22 09:51:00,
2013-02-22 01:52:00,31.8,25.4,30.07,ESE,110,2.3,2.3,77,0.00,,,0.00,0.0,WeatherDisplay:10.37,2013-02-22 09:52:00,
2013-02-22 01:56:00,31.7,25.6,30.06,ESE,110,0.0,0.1,78,0.00,,,0.00,0.0,WeatherDisplay:10.37,2013-02-22 09:56:00,
2013-02-22 01:57:00,31.7,25.6,30.06,ESE,110,1.1,1.1,78,0.00,,,0.00,0.0,WeatherDisplay:10.37,2013-02-22 09:57:00,
2013-02-22 02:02:00,31.6,25.5,30.06,ESE,110,0.0,0.0,78,0.00,,,0.00,0.0,WeatherDisplay:10.37,2013-02-22 10:02:00,
2013-02-22 02:03:00,31.6,25.5,30.06,ESE,110,0.0,0.0,78,0.00,,,0.00,0.0,WeatherDisplay:10.37,2013-02-22 10:03:00,
2013-02-22 02:07:00,31.6,25.5,30.06,ESE,110,1.1,0.0,78,0.00,,,0.00,0.0,WeatherDisplay:10.37,2013-02-22 10:07:00,
2013-02-22 02:08:00,31.6,25.5,30.06,ESE,110,1.1,1.1,78,0.00,,,0.00,0.0,WeatherDisplay:10.37,2013-02-22 10:08:00,
2013-02-22 02:12:00,31.6,25.2,30.07,ESE,110,0.0,0.0,77,0.00,,,0.00,0.0,WeatherDisplay:10.37,2013-02-22 10:12:00,
2013-02-22 02:13:00,31.6,25.2,30.07,ESE,110,0.0,0.0,77,0.00,,,0.00,0.0,WeatherDisplay:10.37,2013-02-22 10:13:00,
2013-02-22 02:17:00,31.6,25.2,30.06,ESE,110,1.1,1.1,77,0.00,,,0.00,0.0,WeatherDisplay:10.37,2013-02-22 10:17:00,
2013-02-22 02:18:00,31.5,25.1,30.06,ESE,110,0.0,0.0,77,0.00,,,0.00,0.0,WeatherDisplay:10.37,2013-02-22 10:18:00,
2013-02-22 02:19:00,31.5,25.1,30.06,ESE,110,0.0,0.0,77,0.00,,,0.00,0.0,WeatherDisplay:10.37,2013-02-22 10:19:00,
2013-02-22 02:22:00,31.4,25.3,30.06,ESE,110,0.0,0.0,78,0.00,,,0.00,0.0,WeatherDisplay:10.37,2013-02-22 10:22:00,
2013-02-22 02:23:00,31.4,25.3,30.06,ESE,110,0.0,0.0,78,0.00,,,0.00,0.0,WeatherDisplay:10.37,2013-02-22 10:23:00,
2013-02-22 02:24:00,31.4,25.3,30.06,ESE,110,0.0,0.0,78,0.00,,,0.00,0.0,WeatherDisplay:10.37,2013-02-22 10:24:00,
2013-02-22 02:27:00,31.3,25.2,30.06,ESE,110,0.0,0.0,78,0.00,,,0.00,0.0,WeatherDisplay:10.37,2013-02-22 10:27:00,
2013-02-22 02:28:00,31.3,25.2,30.06,ESE,110,0.0,0.0,78,0.00,,,0.00,0.0,WeatherDisplay:10.37,2013-02-22 10:28:00,
2013-02-22 02:29:00,31.2,25.1,30.06,ESE,110,0.0,0.0,78,0.00,,,0.00,0.0,WeatherDisplay:10.37,2013-02-22 10:29:00,
2013-02-22 02:32:00,31.3,25.2,30.06,ESE,110,0.0,0.0,78,0.00,,,0.00,0.0,WeatherDisplay:10.37,2013-02-22 10:32:00,
2013-02-22 02:33:00,31.2,25.1,30.06,ESE,110,0.0,0.0,78,0.00,,,0.00,0.0,WeatherDisplay:10.37,2013-02-22 10:33:00,
2013-02-22 02:34:00,31.3,25.2,30.06,ESE,110,1.0,0.0,78,0.00,,,0.00,0.0,WeatherDisplay:10.37,2013-02-22 10:34:00,
2013-02-22 02:37:00,31.2,25.1,30.06,ESE,110,0.0,0.0,78,0.00,,,0.00,0.0,WeatherDisplay:10.37,2013-02-22 10:37:00,
2013-02-22 02:38:00,31.2,25.1,30.06,ESE,110,0.0,0.0,78,0.00,,,0.00,0.0,WeatherDisplay:10.37,2013-02-22 10:38:00,
2013-02-22 02:39:00,31.2,25.1,30.06,ESE,110,0.0,0.0,78,0.00,,,0.00,0.0,WeatherDisplay:10.37,2013-02-22 10:39:00,
2013-02-22 02:42:00,31.2,25.1,30.06,ESE,110,0.0,0.0,78,0.00,,,0.00,0.0,WeatherDisplay:10.37,2013-02-22 10:42:00,
2013-02-22 02:44:00,31.2,25.1,30.06,ESE,110,1.1,1.1,78,0.00,,,0.00,0.0,WeatherDisplay:10.37,2013-02-22 10:44:00,
2013-02-22 02:45:00,31.1,25.0,30.06,ESE,110,1.1,1.1,78,0.00,,,0.00,0.0,WeatherDisplay:10.37,2013-02-22 10:45:00,
2013-02-22 02:47:00,31.1,25.0,30.06,ESE,110,0.0,0.0,78,0.00,,,0.00,0.0,WeatherDisplay:10.37,2013-02-22 10:47:00,
2013-02-22 02:49:00,31.1,25.0,30.06,ESE,110,1.1,0.0,78,0.00,,,0.00,0.0,WeatherDisplay:10.37,2013-02-22 10:49:00,
2013-02-22 02:50:00,31.2,25.1,30.06,ESE,110,0.0,0.0,78,0.00,,,0.00,0.0,WeatherDisplay:10.37,2013-02-22 10:50:00,
2013-02-22 02:52:00,31.2,25.1,30.06,ESE,110,0.0,0.1,78,0.00,,,0.00,0.0,WeatherDisplay:10.37,2013-02-22 10:52:00,
2013-02-22 02:54:00,31.2,25.1,30.06,ESE,110,1.1,0.0,78,0.00,,,0.00,0.0,WeatherDisplay:10.37,2013-02-22 10:54:00,
2013-02-22 02:55:00,31.2,25.1,30.06,ESE,110,1.1,1.1,78,0.00,,,0.00,0.0,WeatherDisplay:10.37,2013-02-22 10:55:00,
2013-02-22 02:57:00,31.2,25.1,30.06,ESE,110,2.3,2.3,78,0.00,,,0.00,0.0,WeatherDisplay:10.37,2013-02-22 10:57:00,
2013-02-22 02:59:00,31.2,25.1,30.06,ESE,110,3.5,3.5,78,0.00,,,0.00,0.0,WeatherDisplay:10.37,2013-02-22 10:59:00,
2013-02-22 03:00:00,31.2,25.1,30.06,ESE,110,2.3,2.3,78,0.00,,,0.00,0.0,WeatherDisplay:10.37,2013-02-22 11:00:00,
2013-02-22 03:03:00,31.2,25.1,30.06,ESE,110,1.1,1.1,78,0.00,,,0.00,0.0,WeatherDisplay:10.37,2013-02-22 11:03:00,
2013-02-22 03:04:00,31.2,25.1,30.05,ESE,110,2.0,2.0,78,0.00,,,0.00,0.0,WeatherDisplay:10.37,2013-02-22 11:04:00,
2013-02-22 03:05:00,31.2,25.1,30.06,ESE,110,3.0,3.0,78,0.00,,,0.00,0.0,WeatherDisplay:10.37,2013-02-22 11:05:00,
2013-02-22 03:06:00,31.2,25.1,30.05,ESE,110,3.5,3.5,78,0.00,,,0.00,0.0,WeatherDisplay:10.37,2013-02-22 11:06:00,
2013-02-22 03:08:00,31.2,25.1,30.05,ESE,121,5.0,5.0,78,0.00,,,0.00,0.0,WeatherDisplay:10.37,2013-02-22 11:08:00,
2013-02-22 03:09:00,31.3,25.2,30.05,ESE,117,4.6,4.6,78,0.00,,,0.00,0.0,WeatherDisplay:10.37,2013-02-22 11:09:00,
2013-02-22 03:11:00,31.4,25.3,30.05,ESE,116,3.5,3.5,78,0.00,,,0.00,0.0,WeatherDisplay:10.37,2013-02-22 11:11:00,
2013-02-22 03:13:00,31.5,25.4,30.05,ESE,115,2.3,2.3,78,0.00,,,0.00,0.0,WeatherDisplay:10.37,2013-02-22 11:13:00,
2013-02-22 03:14:00,31.5,25.4,30.05,ESE,115,1.1,1.1,78,0.00,,,0.00,0.0,WeatherDisplay:10.37,2013-02-22 11:14:00,
2013-02-22 03:16:00,31.5,25.4,30.06,ESE,115,0.0,0.0,78,0.00,,,0.00,0.0,WeatherDisplay:10.37,2013-02-22 11:16:00,
2013-02-22 03:18:00,31.6,25.5,30.06,ESE,107,4.0,4.0,78,0.00,,,0.00,0.0,WeatherDisplay:10.37,2013-02-22 11:18:00,
2013-02-22 03:19:00,31.5,25.4,30.05,ESE,117,4.6,4.6,78,0.00,,,0.00,0.0,WeatherDisplay:10.37,2013-02-22 11:19:00,
2013-02-22 03:21:00,31.6,25.5,30.05,ESE,119,3.5,3.5,78,0.00,,,0.00,0.0,WeatherDisplay:10.37,2013-02-22 11:21:00,
2013-02-22 03:23:00,31.6,25.5,30.06,ESE,119,0.0,0.0,78,0.00,,,0.00,0.0,WeatherDisplay:10.37,2013-02-22 11:23:00,
2013-02-22 03:25:00,31.6,25.5,30.05,ESE,119,1.1,1.1,78,0.00,,,0.00,0.0,WeatherDisplay:10.37,2013-02-22 11:25:00,
2013-02-22 03:26:00,31.6,25.5,30.05,ESE,119,1.1,1.1,78,0.00,,,0.00,0.0,WeatherDisplay:10.37,2013-02-22 11:26:00,
2013-02-22 03:27:00,31.6,25.5,30.05,ESE,119,1.1,1.1,78,0.00,,,0.00,0.0,WeatherDisplay:10.37,2013-02-22 11:27:00,
2013-02-22 03:28:00,31.6,25.5,30.05,ESE,119,1.1,1.1,78,0.00,,,0.00,0.0,WeatherDisplay:10.37,2013-02-22 11:28:00,
2013-02-22 03:31:00,31.7,25.3,30.05,ESE,119,0.0,0.0,77,0.00,,,0.00,0.0,WeatherDisplay:10.37,2013-02-22 11:31:00,
2013-02-22 03:32:00,31.7,25.3,30.05,ESE,119,0.0,0.0,77,0.00,,,0.00,0.0,WeatherDisplay:10.37,2013-02-22 11:32:00,
2013-02-22 03:33:00,31.7,25.6,30.05,ESE,119,1.1,1.1,78,0.00,,,0.00,0.0,WeatherDisplay:10.37,2013-02-22 11:33:00,
2013-02-22 03:36:00,31.8,25.4,30.05,ESE,119,1.1,1.1,77,0.00,,,0.00,0.0,WeatherDisplay:10.37,2013-02-22 11:36:00,
2013-02-22 03:37:00,31.8,25.4,30.05,ESE,119,1.1,1.1,77,0.00,,,0.00,0.0,WeatherDisplay:10.37,2013-02-22 11:37:00,
2013-02-22 03:39:00,31.8,25.4,30.05,ESE,119,1.1,1.1,77,0.00,,,0.00,0.0,WeatherDisplay:10.37,2013-02-22 11:39:00,
2013-02-22 03:42:00,31.8,25.7,30.04,East,84,3.5,3.5,78,0.00,,,0.00,0.0,WeatherDisplay:10.37,2013-02-22 11:42:00,
2013-02-22 03:43:00,31.8,25.7,30.04,ENE,75,3.5,3.5,78,0.00,,,0.00,0.0,WeatherDisplay:10.37,2013-02-22 11:43:00,
2013-02-22 03:44:00,31.8,25.7,30.04,ENE,75,0.0,0.2,78,0.00,,,0.00,0.0,WeatherDisplay:10.37,2013-02-22 11:44:00,
2013-02-22 03:47:00,31.8,25.7,30.04,East,80,2.3,2.3,78,0.00,,,0.00,0.0,WeatherDisplay:10.37,2013-02-22 11:47:00,
2013-02-22 03:48:00,31.8,26.0,30.04,East,80,0.0,0.0,79,0.00,,,0.00,0.0,WeatherDisplay:10.37,2013-02-22 11:48:00,
2013-02-22 03:49:00,31.8,26.0,30.05,East,80,1.1,1.1,79,0.00,,,0.00,0.0,WeatherDisplay:10.37,2013-02-22 11:49:00,
2013-02-22 03:52:00,31.8,26.0,30.04,ENE,73,3.0,3.0,79,0.00,,,0.00,0.0,WeatherDisplay:10.37,2013-02-22 11:52:00,
2013-02-22 03:53:00,31.7,25.9,30.04,ENE,73,3.5,3.5,79,0.00,,,0.00,0.0,WeatherDisplay:10.37,2013-02-22 11:53:00,
2013-02-22 03:54:00,31.7,25.9,30.04,ENE,73,1.1,0.0,79,0.00,,,0.00,0.0,WeatherDisplay:10.37,2013-02-22 11:54:00,
2013-02-22 03:57:00,31.7,25.9,30.04,East,83,3.5,3.5,79,0.00,,,0.00,0.0,WeatherDisplay:10.37,2013-02-22 11:57:00,
2013-02-22 03:58:00,31.6,26.1,30.04,East,83,3.5,3.5,80,0.00,,,0.00,0.0,WeatherDisplay:10.37,2013-02-22 11:58:00,
2013-02-22 03:59:00,31.6,26.1,30.04,East,83,2.3,2.3,80,0.00,,,0.00,0.0,WeatherDisplay:10.37,2013-02-22 11:59:00,
2013-02-22 04:02:00,31.5,26.0,30.04,East,88,4.6,4.6,80,0.00,,,0.00,0.0,WeatherDisplay:10.37,2013-02-22 12:02:00,
2013-02-22 04:03:00,31.5,26.0,30.04,East,88,3.5,3.5,80,0.00,,,0.00,0.0,WeatherDisplay:10.37,2013-02-22 12:03:00,
2013-02-22 04:04:00,31.4,25.9,30.04,East,88,3.5,3.5,80,0.00,,,0.00,0.0,WeatherDisplay:10.37,2013-02-22 12:04:00,
2013-02-22 04:08:00,31.4,25.9,30.05,East,88,3.5,3.5,80,0.00,,,0.00,0.0,WeatherDisplay:10.37,2013-02-22 12:08:00,
2013-02-22 04:09:00,31.3,25.8,30.05,East,88,2.3,2.3,80,0.00,,,0.00,0.0,WeatherDisplay:10.37,2013-02-22 12:09:00,
2013-02-22 04:13:00,31.2,26.0,30.04,East,88,3.5,3.5,81,0.00,,,0.00,0.0,WeatherDisplay:10.37,2013-02-22 12:13:00,
2013-02-22 04:14:00,31.2,26.0,30.04,East,88,3.5,3.5,81,0.00,,,0.00,0.0,WeatherDisplay:10.37,2013-02-22 12:14:00,
2013-02-22 04:18:00,31.2,26.0,30.04,East,88,3.5,3.5,81,0.00,,,0.00,0.0,WeatherDisplay:10.37,2013-02-22 12:18:00,
2013-02-22 04:19:00,31.1,26.0,30.04,East,88,3.5,3.5,81,0.00,,,0.00,0.0,WeatherDisplay:10.37,2013-02-22 12:19:00,
2013-02-22 04:23:00,31.1,26.0,30.04,East,88,1.1,0.0,81,0.00,,,0.00,0.0,WeatherDisplay:10.37,2013-02-22 12:23:00,
2013-02-22 04:24:00,31.1,26.0,30.04,East,88,1.1,0.0,81,0.00,,,0.00,0.0,WeatherDisplay:10.37,2013-02-22 12:24:00,
2013-02-22 04:25:00,31.1,26.0,30.04,East,88,1.1,1.1,81,0.00,,,0.00,0.0,WeatherDisplay:10.37,2013-02-22 12:25:00,
2013-02-22 04:28:00,31.0,25.9,30.04,East,88,1.1,1.1,81,0.00,,,0.00,0.0,WeatherDisplay:10.37,2013-02-22 12:28:00,
2013-02-22 04:29:00,31.0,25.9,30.04,East,88,1.1,1.1,81,0.00,,,0.00,0.0,WeatherDisplay:10.37,2013-02-22 12:29:00,
2013-02-22 04:30:00,31.0,25.9,30.04,East,88,1.1,0.0,81,0.00,,,0.00,0.0,WeatherDisplay:10.37,2013-02-22 12:30:00,
2013-02-22 04:34:00,31.0,25.9,30.04,East,88,1.1,1.1,81,0.00,,,0.00,0.0,WeatherDisplay:10.37,2013-02-22 12:34:00,
2013-02-22 04:35:00,30.9,25.8,30.04,East,88,1.1,1.1,81,0.00,,,0.00,0.0,WeatherDisplay:10.37,2013-02-22 12:35:00,
2013-02-22 04:39:00,30.9,25.8,30.04,East,88,2.3,2.3,81,0.00,,,0.00,0.0,WeatherDisplay:10.37,2013-02-22 12:39:00,
2013-02-22 04:40:00,30.9,25.8,30.04,East,88,1.1,1.1,81,0.00,,,0.00,0.0,WeatherDisplay:10.37,2013-02-22 12:40:00,
2013-02-22 04:44:00,30.8,25.7,30.04,East,88,1.0,1.0,81,0.00,,,0.00,0.0,WeatherDisplay:10.37,2013-02-22 12:44:00,
2013-02-22 04:45:00,30.8,26.0,30.04,East,88,1.1,1.1,82,0.00,,,0.00,0.0,WeatherDisplay:10.37,2013-02-22 12:45:00,
2013-02-22 04:49:00,30.9,26.1,30.05,East,88,2.3,0.0,82,0.00,,,0.00,0.0,WeatherDisplay:10.37,2013-02-22 12:49:00,
2013-02-22 04:50:00,30.9,26.1,30.05,East,88,0.0,0.0,82,0.00,,,0.00,0.0,WeatherDisplay:10.37,2013-02-22 12:50:00,
2013-02-22 04:51:00,30.9,26.1,30.05,East,88,1.1,1.1,82,0.00,,,0.00,0.0,WeatherDisplay:10.37,2013-02-22 12:51:00,
2013-02-22 04:55:00,30.9,26.1,30.05,East,88,0.0,0.0,82,0.00,,,0.00,0.0,WeatherDisplay:10.37,2013-02-22 12:55:00,
2013-02-22 04:56:00,31.0,26.1,30.05,East,88,2.3,2.3,82,0.00,,,0.00,0.0,WeatherDisplay:10.37,2013-02-22 12:56:00,
2013-02-22 04:57:00,31.0,26.1,30.05,East,88,1.1,0.0,82,0.00,,,0.00,0.0,WeatherDisplay:10.37,2013-02-22 12:57:00,
2013-02-22 05:00:00,31.0,26.1,30.05,East,88,0.0,0.0,82,0.00,,,0.00,0.0,WeatherDisplay:10.37,2013-02-22 13:00:00,
2013-02-22 05:01:00,31.0,26.1,30.05,East,88,1.1,1.1,82,0.00,,,0.00,0.0,WeatherDisplay:10.37,2013-02-22 13:01:00,
2013-02-22 05:03:00,31.0,26.1,30.05,East,88,1.1,1.1,82,0.00,,,0.00,0.0,WeatherDisplay:10.37,2013-02-22 13:03:00,
2013-02-22 05:05:00,31.0,26.1,30.05,East,88,1.1,0.0,82,0.00,,,0.00,0.0,WeatherDisplay:10.37,2013-02-22 13:05:00,
2013-02-22 05:06:00,30.9,26.1,30.05,East,88,0.0,0.0,82,0.00,,,0.00,0.0,WeatherDisplay:10.37,2013-02-22 13:06:00,
2013-02-22 05:08:00,30.9,26.1,30.05,East,88,0.0,0.0,82,0.00,,,0.00,0.0,WeatherDisplay:10.37,2013-02-22 13:08:00,
2013-02-22 05:10:00,30.9,26.1,30.05,East,88,1.1,1.1,82,0.00,,,0.00,0.0,WeatherDisplay:10.37,2013-02-22 13:10:00,
2013-02-22 05:11:00,30.9,26.1,30.05,East,88,0.0,0.0,82,0.00,,,0.00,0.0,WeatherDisplay:10.37,2013-02-22 13:11:00,
2013-02-22 05:14:00,30.9,26.1,30.05,East,88,1.1,1.1,82,0.00,,,0.00,0.0,WeatherDisplay:10.37,2013-02-22 13:14:00,
2013-02-22 05:15:00,30.9,26.1,30.05,East,88,1.1,1.1,82,0.00,,,0.00,0.0,WeatherDisplay:10.37,2013-02-22 13:15:00,
2013-02-22 05:16:00,30.9,26.1,30.05,East,88,1.1,0.0,82,0.00,,,0.00,0.0,WeatherDisplay:10.37,2013-02-22 13:16:00,
2013-02-22 05:19:00,30.8,26.2,30.05,East,88,1.1,1.1,83,0.00,,,0.00,0.0,WeatherDisplay:10.37,2013-02-22 13:19:00,
2013-02-22 05:20:00,30.8,26.2,30.05,East,88,1.1,0.0,83,0.00,,,0.00,0.0,WeatherDisplay:10.37,2013-02-22 13:20:00,
2013-02-22 05:21:00,30.7,26.1,30.04,East,88,0.0,0.0,83,0.00,,,0.00,0.0,WeatherDisplay:10.37,2013-02-22 13:21:00,
2013-02-22 05:24:00,30.7,26.1,30.04,East,88,3.5,3.5,83,0.00,,,0.00,0.0,WeatherDisplay:10.37,2013-02-22 13:24:00,
2013-02-22 05:25:00,30.7,26.1,30.04,East,88,3.5,3.5,83,0.00,,,0.00,0.0,WeatherDisplay:10.37,2013-02-22 13:25:00,
2013-02-22 05:26:00,30.7,26.1,30.04,East,88,2.3,2.3,83,0.00,,,0.00,0.0,WeatherDisplay:10.37,2013-02-22 13:26:00,
2013-02-22 05:29:00,30.6,26.1,30.04,East,88,0.0,0.1,83,0.00,,,0.00,0.0,WeatherDisplay:10.37,2013-02-22 13:29:00,
2013-02-22 05:30:00,30.6,26.1,30.05,East,88,1.1,0.0,83,0.00,,,0.00,0.0,WeatherDisplay:10.37,2013-02-22 13:30:00,
2013-02-22 05:31:00,30.6,26.1,30.04,East,88,0.0,0.1,83,0.00,,,0.00,0.0,WeatherDisplay:10.37,2013-02-22 13:31:00,
2013-02-22 05:34:00,30.6,26.1,30.04,East,88,0.0,0.0,83,0.00,,,0.00,0.0,WeatherDisplay:10.37,2013-02-22 13:34:00,
2013-02-22 05:35:00,30.5,26.0,30.05,East,88,0.0,0.0,83,0.00,,,0.00,0.0,WeatherDisplay:10.37,2013-02-22 13:35:00,
2013-02-22 05:36:00,30.5,26.0,30.05,East,88,0.0,0.0,83,0.00,,,0.00,0.0,WeatherDisplay:10.37,2013-02-22 13:36:00,
2013-02-22 05:37:00,30.5,26.0,30.05,East,88,0.0,0.0,83,0.00,,,0.00,0.0,WeatherDisplay:10.37,2013-02-22 13:37:00,
2013-02-22 05:39:00,30.5,26.2,30.04,East,88,2.3,2.3,84,0.00,,,0.00,0.0,WeatherDisplay:10.37,2013-02-22 13:39:00,
2013-02-22 05:40:00,30.5,26.2,30.04,East,88,1.1,0.0,84,0.00,,,0.00,0.0,WeatherDisplay:10.37,2013-02-22 13:40:00,
2013-02-22 05:41:00,30.4,26.1,30.04,East,88,0.0,0.0,84,0.00,,,0.00,0.0,WeatherDisplay:10.37,2013-02-22 13:41:00,
2013-02-22 05:42:00,30.4,26.1,30.04,East,88,0.0,0.0,84,0.00,,,0.00,0.0,WeatherDisplay:10.37,2013-02-22 13:42:00,
2013-02-22 05:44:00,30.4,25.9,30.04,East,88,1.1,1.1,83,0.00,,,0.00,0.0,WeatherDisplay:10.37,2013-02-22 13:44:00,
2013-02-22 05:45:00,30.4,25.9,30.04,East,88,1.1,1.1,83,0.00,,,0.00,0.0,WeatherDisplay:10.37,2013-02-22 13:45:00,
2013-02-22 05:46:00,30.4,25.9,30.04,East,88,1.1,0.0,83,0.00,,,0.00,0.0,WeatherDisplay:10.37,2013-02-22 13:46:00,
2013-02-22 05:48:00,30.4,25.9,30.04,East,88,1.1,0.0,83,0.00,,,0.00,0.0,WeatherDisplay:10.37,2013-02-22 13:48:00,
2013-02-22 05:49:00,30.4,25.9,30.04,East,88,3.0,3.0,83,0.00,,,0.00,0.0,WeatherDisplay:10.37,2013-02-22 13:49:00,
2013-02-22 05:51:00,30.4,26.1,30.04,East,88,3.5,3.5,84,0.00,,,0.00,0.0,WeatherDisplay:10.37,2013-02-22 13:51:00,
2013-02-22 05:53:00,30.4,26.1,30.04,East,89,4.6,4.6,84,0.00,,,0.00,0.0,WeatherDisplay:10.37,2013-02-22 13:53:00,
2013-02-22 05:55:00,30.4,26.1,30.04,East,90,2.3,2.3,84,0.00,,,0.00,0.0,WeatherDisplay:10.37,2013-02-22 13:55:00,
2013-02-22 05:56:00,30.4,26.1,30.04,East,90,2.3,2.3,84,0.00,,,0.00,0.0,WeatherDisplay:10.37,2013-02-22 13:56:00,
2013-02-22 05:58:00,30.4,26.1,30.04,East,90,3.5,3.5,84,0.00,,,0.00,0.0,WeatherDisplay:10.37,2013-02-22 13:58:00,
2013-02-22 06:01:00,30.4,26.1,30.04,East,90,1.1,1.1,84,0.00,,,0.00,0.0,WeatherDisplay:10.37,2013-02-22 14:01:00,
2013-02-22 06:02:00,30.4,26.1,30.04,East,90,1.0,0.0,84,0.00,,,0.00,0.0,WeatherDisplay:10.37,2013-02-22 14:02:00,
2013-02-22 06:03:00,30.4,26.1,30.04,East,90,1.1,1.1,84,0.00,,,0.00,0.0,WeatherDisplay:10.37,2013-02-22 14:03:00,
2013-02-22 06:07:00,30.4,26.1,30.03,East,91,3.5,3.5,84,0.00,,,0.00,0.0,WeatherDisplay:10.37,2013-02-22 14:07:00,
2013-02-22 06:08:00,30.4,26.1,30.03,East,91,3.5,3.5,84,0.00,,,0.00,0.0,WeatherDisplay:10.37,2013-02-22 14:08:00,
2013-02-22 06:09:00,30.4,26.1,30.03,East,92,3.0,3.0,84,0.00,,,0.00,0.0,WeatherDisplay:10.37,2013-02-22 14:09:00,
2013-02-22 06:12:00,30.4,26.1,30.03,East,94,3.5,3.5,84,0.00,,,0.00,0.0,WeatherDisplay:10.37,2013-02-22 14:12:00,
2013-02-22 06:13:00,30.5,26.2,30.03,East,94,4.6,4.6,84,0.00,,,0.00,0.0,WeatherDisplay:10.37,2013-02-22 14:13:00,
2013-02-22 06:14:00,30.5,26.2,30.03,East,94,3.5,3.5,84,0.00,,,0.00,0.0,WeatherDisplay:10.37,2013-02-22 14:14:00,
2013-02-22 06:17:00,30.5,26.2,30.03,East,94,2.3,2.3,84,0.00,,,0.00,0.0,WeatherDisplay:10.37,2013-02-22 14:17:00,
2013-02-22 06:19:00,30.5,26.2,30.03,East,94,1.0,0.0,84,0.00,,,0.00,0.0,WeatherDisplay:10.37,2013-02-22 14:19:00,
2013-02-22 06:22:00,30.5,26.2,30.03,East,94,1.0,1.0,84,0.00,,,0.00,0.0,WeatherDisplay:10.37,2013-02-22 14:22:00,
2013-02-22 06:24:00,30.5,26.2,30.03,East,94,1.1,0.0,84,0.00,,,0.00,0.0,WeatherDisplay:10.37,2013-02-22 14:24:00,
2013-02-22 06:25:00,30.5,26.2,30.03,East,94,0.0,0.0,84,0.00,,,0.00,0.0,WeatherDisplay:10.37,2013-02-22 14:25:00,
2013-02-22 06:27:00,30.6,26.1,30.03,East,94,0.0,0.0,83,0.00,,,0.00,0.0,WeatherDisplay:10.37,2013-02-22 14:27:00,
2013-02-22 06:28:00,30.6,26.1,30.03,East,94,0.0,0.0,83,0.00,,,0.00,0.0,WeatherDisplay:10.37,2013-02-22 14:28:00,
2013-02-22 06:29:00,30.6,26.1,30.03,East,94,0.0,0.0,83,0.00,,,0.00,0.0,WeatherDisplay:10.37,2013-02-22 14:29:00,
2013-02-22 06:30:00,30.6,26.1,30.03,East,94,1.1,0.0,83,0.00,,,0.00,0.0,WeatherDisplay:10.37,2013-02-22 14:30:00,
2013-02-22 06:33:00,30.6,26.1,30.03,East,94,0.0,0.0,83,0.00,,,0.00,0.0,WeatherDisplay:10.37,2013-02-22 14:33:00,
2013-02-22 06:34:00,30.7,26.1,30.03,East,94,0.0,0.0,83,0.00,,,0.00,0.0,WeatherDisplay:10.37,2013-02-22 14:34:00,
2013-02-22 06:35:00,30.7,26.1,30.03,East,94,0.0,0.0,83,0.00,,,0.00,0.0,WeatherDisplay:10.37,2013-02-22 14:35:00,
2013-02-22 06:38:00,30.7,26.1,30.03,East,94,0.0,0.0,83,0.00,,,0.00,0.0,WeatherDisplay:10.37,2013-02-22 14:38:00,
2013-02-22 06:40:00,30.7,26.1,30.03,East,94,0.0,0.0,83,0.00,,,0.00,0.0,WeatherDisplay:10.37,2013-02-22 14:40:00,
2013-02-22 06:43:00,30.8,26.2,30.03,East,94,0.0,0.0,83,0.00,,,0.00,0.0,WeatherDisplay:10.37,2013-02-22 14:43:00,
2013-02-22 06:44:00,30.8,26.2,30.03,East,94,0.0,0.0,83,0.00,,,0.00,0.0,WeatherDisplay:10.37,2013-02-22 14:44:00,
2013-02-22 06:45:00,30.8,26.2,30.03,East,94,1.1,1.1,83,0.00,,,0.00,0.0,WeatherDisplay:10.37,2013-02-22 14:45:00,
2013-02-22 06:48:00,30.9,26.1,30.03,East,94,1.1,0.0,82,0.00,,,0.00,0.0,WeatherDisplay:10.37,2013-02-22 14:48:00,
2013-02-22 06:49:00,30.9,26.1,30.03,East,94,0.0,0.0,82,0.00,,,0.00,0.0,WeatherDisplay:10.37,2013-02-22 14:49:00,
2013-02-22 06:50:00,30.9,26.1,30.03,East,94,0.0,0.0,82,0.00,,,0.00,0.0,WeatherDisplay:10.37,2013-02-22 14:50:00,
2013-02-22 06:53:00,31.0,26.1,30.03,East,94,0.0,0.0,82,0.00,,,0.00,0.0,WeatherDisplay:10.37,2013-02-22 14:53:00,
2013-02-22 06:54:00,31.1,26.2,30.03,East,94,0.0,0.0,82,0.00,,,0.00,0.0,WeatherDisplay:10.37,2013-02-22 14:54:00,
2013-02-22 06:55:00,31.1,26.2,30.03,East,94,0.0,0.0,82,0.00,,,0.00,0.0,WeatherDisplay:10.37,2013-02-22 14:55:00,
2013-02-22 06:58:00,31.2,26.3,30.03,East,94,0.0,0.0,82,0.00,,,0.00,0.0,WeatherDisplay:10.37,2013-02-22 14:58:00,
2013-02-22 06:59:00,31.2,26.3,30.03,East,94,0.0,0.0,82,0.00,,,0.00,0.0,WeatherDisplay:10.37,2013-02-22 14:59:00,
2013-02-22 07:00:00,31.2,26.3,30.03,East,94,0.0,0.0,82,0.00,,,0.00,0.0,WeatherDisplay:10.37,2013-02-22 15:00:00,
2013-02-22 07:05:00,31.5,26.6,30.04,East,94,2.3,2.3,82,0.00,,,0.00,0.0,WeatherDisplay:10.37,2013-02-22 15:05:00,
2013-02-22 07:06:00,31.5,26.3,30.04,East,94,2.3,2.3,81,0.00,,,0.00,0.0,WeatherDisplay:10.37,2013-02-22 15:06:00,
2013-02-22 07:10:00,32.0,26.5,30.03,East,94,3.5,3.5,80,0.00,BKN,,0.00,8.4,WeatherDisplay:10.37,2013-02-22 15:10:00,
2013-02-22 07:11:00,32.0,26.5,30.03,East,94,3.5,3.5,80,0.00,BKN,,0.00,8.4,WeatherDisplay:10.37,2013-02-22 15:11:00,
2013-02-22 07:15:00,32.6,26.8,30.03,East,94,3.5,3.5,79,0.00,BKN,,0.00,13.2,WeatherDisplay:10.37,2013-02-22 15:15:00,
2013-02-22 07:16:00,32.8,27.0,30.03,East,94,2.3,2.3,79,0.00,BKN,,0.00,13.2,WeatherDisplay:10.37,2013-02-22 15:16:00,
2013-02-22 07:20:00,33.4,27.3,30.03,East,94,1.1,1.1,78,0.00,BKN,,0.00,21.6,WeatherDisplay:10.37,2013-02-22 15:20:00,
2013-02-22 07:21:00,33.5,27.4,30.03,East,94,2.3,2.3,78,0.00,BKN,,0.00,22.8,WeatherDisplay:10.37,2013-02-22 15:21:00,
2013-02-22 07:22:00,33.6,27.2,30.03,East,94,2.3,2.3,77,0.00,BKN,,0.00,22.8,WeatherDisplay:10.37,2013-02-22 15:22:00,
2013-02-22 07:25:00,34.0,27.2,30.03,ESE,108,4.6,4.6,76,0.00,BKN,,0.00,22.8,WeatherDisplay:10.37,2013-02-22 15:25:00,
2013-02-22 07:26:00,34.1,27.3,30.03,ESE,108,2.3,2.3,76,0.00,BKN,,0.00,22.8,WeatherDisplay:10.37,2013-02-22 15:26:00,
2013-02-22 07:27:00,34.1,27.0,30.03,ESE,108,2.0,2.0,75,0.00,BKN,,0.00,22.8,WeatherDisplay:10.37,2013-02-22 15:27:00,
2013-02-22 07:30:00,34.7,27.3,30.03,SE,128,3.5,3.5,74,0.00,BKN,,0.00,19.2,WeatherDisplay:10.37,2013-02-22 15:30:00,
2013-02-22 07:31:00,34.9,27.5,30.03,SE,134,1.1,1.1,74,0.00,BKN,,0.00,16.8,WeatherDisplay:10.37,2013-02-22 15:31:00,
2013-02-22 07:32:00,35.0,27.5,30.03,SE,134,2.3,2.3,74,0.00,BKN,,0.00,16.8,WeatherDisplay:10.37,2013-02-22 15:32:00,
2013-02-22 07:35:00,35.4,27.3,30.03,South,171,3.0,3.0,72,0.00,BKN,,0.00,14.4,WeatherDisplay:10.37,2013-02-22 15:35:00,
2013-02-22 07:36:00,35.7,27.2,30.03,SSE,159,3.5,3.5,71,0.00,BKN,,0.00,14.4,WeatherDisplay:10.37,2013-02-22 15:36:00,
2013-02-22 07:37:00,35.7,27.2,30.03,SSE,159,3.5,3.5,71,0.00,BKN,,0.00,14.4,WeatherDisplay:10.37,2013-02-22 15:37:00,
2013-02-22 07:40:00,36.0,27.2,30.03,SSE,162,3.5,3.5,70,0.00,BKN,,0.00,16.8,WeatherDisplay:10.37,2013-02-22 15:40:00,
2013-02-22 07:41:00,36.1,27.3,30.03,SSE,152,5.8,5.8,70,0.00,BKN,,0.00,16.8,WeatherDisplay:10.37,2013-02-22 15:41:00,
2013-02-22 07:43:00,36.3,27.1,30.03,SE,126,6.0,6.0,69,0.00,BKN,,0.00,19.2,WeatherDisplay:10.37,2013-02-22 15:43:00,
2013-02-22 07:45:00,36.6,27.0,30.02,SSE,153,6.9,6.9,68,0.00,BKN,,0.00,22.8,WeatherDisplay:10.37,2013-02-22 15:45:00,
2013-02-22 07:46:00,36.7,27.1,30.02,SE,145,4.6,4.6,68,0.00,BKN,,0.00,25.2,WeatherDisplay:10.37,2013-02-22 15:46:00,
2013-02-22 07:48:00,36.8,26.9,30.02,South,181,3.5,3.5,67,0.00,BKN,,0.00,27.6,WeatherDisplay:10.37,2013-02-22 15:48:00,
2013-02-22 07:50:00,36.8,26.9,30.03,SSW,192,3.5,3.5,67,0.00,BKN,,0.00,31.2,WeatherDisplay:10.37,2013-02-22 15:50:00,
2013-02-22 07:52:00,36.9,27.0,30.03,South,169,11.5,11.5,67,0.00,BKN,,0.00,38.4,WeatherDisplay:10.37,2013-02-22 15:52:00,
2013-02-22 07:53:00,36.9,27.0,30.02,South,173,5.8,5.8,67,0.00,BKN,,0.00,42.0,WeatherDisplay:10.37,2013-02-22 15:53:00,
2013-02-22 07:55:00,37.0,27.1,30.02,SSE,150,6.0,6.0,67,0.00,BKN,,0.00,42.0,WeatherDisplay:10.37,2013-02-22 15:55:00,
2013-02-22 07:57:00,37.0,27.1,30.02,SSE,154,10.4,10.4,67,0.00,BKN,,0.00,39.6,WeatherDisplay:10.37,2013-02-22 15:57:00,
2013-02-22 07:58:00,37.1,26.8,30.02,South,184,10.4,10.4,66,0.00,BKN,,0.00,42.0,WeatherDisplay:10.37,2013-02-22 15:58:00,
2013-02-22 08:00:00,37.1,26.8,30.02,SSE,153,6.0,6.2,66,0.00,BKN,,0.00,39.6,WeatherDisplay:10.37,2013-02-22 16:00:00,
2013-02-22 08:02:00,37.1,26.8,30.01,SSE,159,10.4,10.4,66,0.00,BKN,,0.00,38.4,WeatherDisplay:10.37,2013-02-22 16:02:00,
2013-02-22 08:03:00,37.1,26.8,30.01,SSE,153,8.1,8.1,66,0.00,BKN,,0.00,36.0,WeatherDisplay:10.37,2013-02-22 16:03:00,
2013-02-22 08:05:00,37.1,26.8,30.01,SSE,155,6.9,6.9,66,0.00,BKN,,0.00,33.6,WeatherDisplay:10.37,2013-02-22 16:05:00,
2013-02-22 08:08:00,37.1,26.8,30.01,SSE,165,8.1,8.1,66,0.00,BKN,,0.00,30.0,WeatherDisplay:10.37,2013-02-22 16:08:00,
2013-02-22 08:09:00,37.1,26.8,30.01,SSE,149,10.4,10.4,66,0.00,BKN,,0.00,31.2,WeatherDisplay:10.37,2013-02-22 16:09:00,
2013-02-22 08:10:00,37.1,26.8,30.01,SE,138,9.2,9.2,66,0.00,BKN,,0.00,31.2,WeatherDisplay:10.37,2013-02-22 16:10:00,
2013-02-22 08:11:00,37.1,26.4,30.00,ESE,105,6.9,6.9,65,0.00,BKN,,0.00,33.6,WeatherDisplay:10.37,2013-02-22 16:11:00,
2013-02-22 08:13:00,37.2,26.5,30.00,SSW,194,15.0,15.0,65,0.00,BKN,,0.00,38.4,WeatherDisplay:10.37,2013-02-22 16:13:00,
2013-02-22 08:14:00,37.2,26.5,30.01,South,179,11.5,11.5,65,0.00,BKN,,0.00,38.4,WeatherDisplay:10.37,2013-02-22 16:14:00,
2013-02-22 08:15:00,37.2,26.5,30.01,SSW,205,11.5,11.5,65,0.00,BKN,,0.00,39.6,WeatherDisplay:10.37,2013-02-22 16:15:00,
2013-02-22 08:17:00,37.2,26.5,30.00,South,180,15.0,15.0,65,0.00,BKN,,0.00,42.0,WeatherDisplay:10.37,2013-02-22 16:17:00,
2013-02-22 08:19:00,37.3,26.6,30.00,SSW,193,11.5,11.5,65,0.00,BKN,,0.00,42.0,WeatherDisplay:10.37,2013-02-22 16:19:00,
2013-02-22 08:20:00,37.3,26.6,30.00,SE,138,13.8,13.8,65,0.00,BKN,,0.00,42.0,WeatherDisplay:10.37,2013-02-22 16:20:00,
2013-02-22 08:22:00,37.4,26.7,30.00,South,178,6.9,6.9,65,0.00,BKN,,0.00,48.0,WeatherDisplay:10.37,2013-02-22 16:22:00,
2013-02-22 08:24:00,37.4,26.3,30.00,SSW,202,12.7,12.7,64,0.00,BKN,,0.00,58.8,WeatherDisplay:10.37,2013-02-22 16:24:00,
2013-02-22 08:25:00,37.5,26.8,30.00,SW,228,12.7,12.7,65,0.00,BKN,,0.00,63.6,WeatherDisplay:10.37,2013-02-22 16:25:00,
2013-02-22 08:28:00,37.5,26.4,30.00,South,191,9.0,9.0,64,0.00,BKN,,0.00,64.8,WeatherDisplay:10.37,2013-02-22 16:28:00,
2013-02-22 08:29:00,37.6,26.5,30.00,SE,146,15.0,15.0,64,0.00,BKN,,0.00,67.2,WeatherDisplay:10.37,2013-02-22 16:29:00,
2013-02-22 08:30:00,37.6,26.5,30.00,SSE,155,10.4,10.4,64,0.00,BKN,,0.00,74.4,WeatherDisplay:10.37,2013-02-22 16:30:00,
2013-02-22 08:33:00,37.7,26.6,30.00,South,184,16.1,16.1,64,0.00,BKN,,0.00,80.4,WeatherDisplay:10.37,2013-02-22 16:33:00,
2013-02-22 08:34:00,37.7,26.6,30.00,SSW,197,12.7,12.7,64,0.00,BKN,,0.00,82.8,WeatherDisplay:10.37,2013-02-22 16:34:00,
2013-02-22 08:35:00,37.7,26.6,30.00,SSE,157,12.7,12.7,64,0.00,BKN,,0.00,86.4,WeatherDisplay:10.37,2013-02-22 16:35:00,
2013-02-22 08:39:00,37.8,26.3,30.00,South,181,12.7,12.7,63,0.00,BKN,,0.00,92.4,WeatherDisplay:10.37,2013-02-22 16:39:00,
2013-02-22 08:40:00,37.8,26.7,30.00,South,184,8.1,8.1,64,0.00,BKN,,0.00,94.8,WeatherDisplay:10.37,2013-02-22 16:40:00,
2013-02-22 08:44:00,37.8,26.3,29.99,SSW,197,15.0,15.0,63,0.00,BKN,,0.00,84.0,WeatherDisplay:10.37,2013-02-22 16:44:00,
2013-02-22 08:45:00,37.7,26.2,29.99,SSW,201,12.7,12.7,63,0.00,BKN,,0.00,84.0,WeatherDisplay:10.37,2013-02-22 16:45:00,
2013-02-22 08:46:00,37.7,26.2,29.99,SSE,167,12.7,12.7,63,0.00,BKN,,0.00,86.4,WeatherDisplay:10.37,2013-02-22 16:46:00,
2013-02-22 08:49:00,37.8,26.7,29.99,SSE,165,5.8,6.5,64,0.00,BKN,,0.00,100.8,WeatherDisplay:10.37,2013-02-22 16:49:00,
2013-02-22 08:50:00,37.8,26.3,29.99,SSW,207,13.8,13.8,63,0.00,BKN,,0.00,105.6,WeatherDisplay:10.37,2013-02-22 16:50:00,
2013-02-22 08:51:00,37.8,26.3,30.00,SW,224,12.0,12.0,63,0.00,BKN,,0.00,109.2,WeatherDisplay:10.37,2013-02-22 16:51:00,
2013-02-22 08:55:00,37.9,26.4,29.99,SSW,193,15.0,15.0,63,0.00,BKN,,0.00,133.2,WeatherDisplay:10.37,2013-02-22 16:55:00,
2013-02-22 08:56:00,37.9,26.4,29.99,SSE,165,15.0,15.0,63,0.00,BKN,,0.00,136.8,WeatherDisplay:10.37,2013-02-22 16:56:00,
2013-02-22 08:57:00,37.9,26.4,29.99,South,189,15.0,15.0,63,0.00,BKN,,0.00,141.6,WeatherDisplay:10.37,2013-02-22 16:57:00,
2013-02-22 09:01:00,38.1,26.2,29.99,South,182,17.3,17.3,62,0.00,SCT,,0.00,156.0,WeatherDisplay:10.37,2013-02-22 17:01:00,
2013-02-22 09:02:00,38.1,26.2,29.99,South,190,17.3,17.3,62,0.00,SCT,,0.00,158.4,WeatherDisplay:10.37,2013-02-22 17:02:00,
2013-02-22 09:06:00,38.2,25.9,29.99,South,190,16.1,16.1,61,0.00,SCT,,0.00,147.6,WeatherDisplay:10.37,2013-02-22 17:06:00,
2013-02-22 09:07:00,38.2,25.9,29.99,SW,223,19.6,19.6,61,0.00,SCT,,0.00,144.0,WeatherDisplay:10.37,2013-02-22 17:07:00,
2013-02-22 09:11:00,38.3,26.0,29.98,SSE,162,15.0,15.0,61,0.00,SCT,,0.00,130.8,WeatherDisplay:10.37,2013-02-22 17:11:00,
2013-02-22 09:12:00,38.4,26.1,29.98,SE,146,12.7,12.7,61,0.00,BKN,,0.00,130.8,WeatherDisplay:10.37,2013-02-22 17:12:00,
2013-02-22 09:16:00,38.4,26.1,29.98,South,189,17.0,17.0,61,0.00,BKN,,0.00,111.6,WeatherDisplay:10.37,2013-02-22 17:16:00,
2013-02-22 09:17:00,38.4,26.1,29.98,South,191,17.3,17.3,61,0.00,BKN,,0.00,111.6,WeatherDisplay:10.37,2013-02-22 17:17:00,
2013-02-22 09:18:00,38.4,26.1,29.98,SSE,165,13.8,13.8,61,0.00,BKN,,0.00,109.2,WeatherDisplay:10.37,2013-02-22 17:18:00,
2013-02-22 09:21:00,38.5,26.2,29.98,SSW,193,15.0,15.0,61,0.00,BKN,,0.00,99.6,WeatherDisplay:10.37,2013-02-22 17:21:00,
2013-02-22 09:22:00,38.5,26.2,29.98,SSE,158,11.5,11.5,61,0.00,BKN,,0.00,94.8,WeatherDisplay:10.37,2013-02-22 17:22:00,
2013-02-22 09:23:00,38.5,26.2,29.98,South,179,16.1,16.1,61,0.00,BKN,,0.00,92.4,WeatherDisplay:10.37,2013-02-22 17:23:00,
2013-02-22 09:26:00,38.5,25.8,29.98,South,182,12.7,12.7,60,0.00,BKN,,0.00,86.4,WeatherDisplay:10.37,2013-02-22 17:26:00,
2013-02-22 09:28:00,38.5,26.2,29.98,SSE,154,12.7,12.7,61,0.00,BKN,,0.00,82.8,WeatherDisplay:10.37,2013-02-22 17:28:00,
2013-02-22 09:31:00,38.5,25.8,29.98,South,175,13.8,13.8,60,0.00,BKN,,0.00,100.8,WeatherDisplay:10.37,2013-02-22 17:31:00,
2013-02-22 09:33:00,38.6,25.9,29.98,SSE,163,12.7,12.7,60,0.00,BKN,,0.00,124.8,WeatherDisplay:10.37,2013-02-22 17:33:00,
2013-02-22 09:34:00,38.6,25.9,29.98,SE,146,12.7,12.7,60,0.00,BKN,,0.00,136.8,WeatherDisplay:10.37,2013-02-22 17:34:00,
2013-02-22 09:36:00,38.6,25.9,29.98,SSE,156,16.1,16.1,60,0.00,BKN,,0.00,145.2,WeatherDisplay:10.37,2013-02-22 17:36:00,
2013-02-22 09:38:00,38.7,26.0,29.98,SSE,155,11.5,11.5,60,0.00,BKN,,0.00,141.6,WeatherDisplay:10.37,2013-02-22 17:38:00,
2013-02-22 09:39:00,38.7,26.0,29.98,South,186,9.2,9.2,60,0.00,BKN,,0.00,145.2,WeatherDisplay:10.37,2013-02-22 17:39:00,
2013-02-22 09:41:00,38.8,26.1,29.98,SE,138,12.7,12.7,60,0.00,BKN,,0.00,166.8,WeatherDisplay:10.37,2013-02-22 17:41:00,
2013-02-22 09:43:00,38.9,26.2,29.98,SSE,148,16.1,16.1,60,0.00,BKN,,0.00,170.4,WeatherDisplay:10.37,2013-02-22 17:43:00,
2013-02-22 09:44:00,38.9,26.2,29.98,SSE,158,11.0,11.0,60,0.00,BKN,,0.00,178.8,WeatherDisplay:10.37,2013-02-22 17:44:00,
2013-02-22 09:47:00,38.9,25.8,29.97,SSE,153,21.9,21.9,59,0.00,BKN,,0.00,177.6,WeatherDisplay:10.37,2013-02-22 17:47:00,
2013-02-22 09:48:00,38.9,25.8,29.97,SSE,160,13.8,13.8,59,0.00,BKN,,0.00,170.4,WeatherDisplay:10.37,2013-02-22 17:48:00,
2013-02-22 09:49:00,39.0,25.9,29.97,SSW,192,16.1,16.1,59,0.00,BKN,,0.00,164.4,WeatherDisplay:10.37,2013-02-22 17:49:00,
2013-02-22 09:50:00,39.0,25.9,29.97,SSE,161,15.0,15.0,59,0.00,BKN,,0.00,160.8,WeatherDisplay:10.37,2013-02-22 17:50:00,
2013-02-22 09:52:00,39.0,25.9,29.97,SSW,192,11.5,11.5,59,0.00,BKN,,0.00,152.4,WeatherDisplay:10.37,2013-02-22 17:52:00,
2013-02-22 09:53:00,39.0,25.9,29.97,SSW,192,12.0,12.0,59,0.00,BKN,,0.00,147.6,WeatherDisplay:10.37,2013-02-22 17:53:00,
2013-02-22 09:54:00,39.1,26.0,29.97,South,190,12.7,12.7,59,0.00,BKN,,0.00,147.6,WeatherDisplay:10.37,2013-02-22 17:54:00,
2013-02-22 09:55:00,39.1,26.0,29.97,SSE,160,11.5,11.5,59,0.00,BKN,,0.00,145.2,WeatherDisplay:10.37,2013-02-22 17:55:00,
2013-02-22 09:57:00,39.2,26.1,29.98,SE,141,8.1,8.1,59,0.00,BKN,,0.00,136.8,WeatherDisplay:10.37,2013-02-22 17:57:00,
2013-02-22 09:58:00,39.2,26.1,29.98,SSE,166,8.0,8.0,59,0.00,BKN,,0.00,128.4,WeatherDisplay:10.37,2013-02-22 17:58:00,
2013-02-22 09:59:00,39.2,26.1,29.98,SW,216,11.5,11.5,59,0.00,BKN,,0.00,124.8,WeatherDisplay:10.37,2013-02-22 17:59:00,
2013-02-22 10:00:00,39.3,26.2,29.98,South,173,11.5,11.5,59,0.00,BKN,,0.00,122.4,WeatherDisplay:10.37,2013-02-22 18:00:00,
2013-02-22 10:02:00,39.2,26.1,29.98,SSE,147,16.1,16.1,59,0.00,BKN,,0.00,120.0,WeatherDisplay:10.37,2013-02-22 18:02:00,
2013-02-22 10:04:00,39.2,26.1,29.98,SE,144,10.4,10.4,59,0.00,BKN,,0.00,124.8,WeatherDisplay:10.37,2013-02-22 18:04:00,
2013-02-22 10:05:00,39.3,26.2,29.98,SE,133,8.1,8.1,59,0.00,BKN,,0.00,124.8,WeatherDisplay:10.37,2013-02-22 18:05:00,
2013-02-22 10:07:00,39.4,26.2,29.98,SW,220,11.0,11.0,59,0.00,BKN,,0.00,124.8,WeatherDisplay:10.37,2013-02-22 18:07:00,
2013-02-22 10:09:00,39.4,25.8,29.98,SSE,157,11.5,11.5,58,0.00,BKN,,0.00,120.0,WeatherDisplay:10.37,2013-02-22 18:09:00,
2013-02-22 10:10:00,39.5,25.9,29.98,SSW,211,11.5,11.5,58,0.00,BKN,,0.00,122.4,WeatherDisplay:10.37,2013-02-22 18:10:00,
2013-02-22 10:11:00,39.5,25.9,29.98,SSE,162,11.5,11.5,58,0.00,BKN,,0.00,130.8,WeatherDisplay:10.37,2013-02-22 18:11:00,
2013-02-22 10:13:00,39.6,26.0,29.98,SE,142,10.4,10.4,58,0.00,BKN,,0.00,150.0,WeatherDisplay:10.37,2013-02-22 18:13:00,
2013-02-22 10:14:00,39.6,26.0,29.98,South,170,10.4,10.4,58,0.00,BKN,,0.00,145.2,WeatherDisplay:10.37,2013-02-22 18:14:00,
2013-02-22 10:15:00,39.6,26.0,29.98,SSW,197,6.9,6.9,58,0.00,BKN,,0.00,141.6,WeatherDisplay:10.37,2013-02-22 18:15:00,
2013-02-22 10:16:00,39.6,26.0,29.98,SSE,154,6.9,6.9,58,0.00,BKN,,0.00,141.6,WeatherDisplay:10.37,2013-02-22 18:16:00,
2013-02-22 10:19:00,39.8,26.2,29.97,SSE,164,10.4,10.4,58,0.00,BKN,,0.00,175.2,WeatherDisplay:10.37,2013-02-22 18:19:00,
2013-02-22 10:20:00,39.8,26.2,29.97,SW,218,9.2,9.2,58,0.00,BKN,,0.00,177.6,WeatherDisplay:10.37,2013-02-22 18:20:00,
2013-02-22 10:21:00,39.8,26.2,29.98,SSE,148,11.5,11.5,58,0.00,BKN,,0.00,170.4,WeatherDisplay:10.37,2013-02-22 18:21:00,
2013-02-22 10:24:00,39.9,26.3,29.98,ESE,123,6.9,6.9,58,0.00,BKN,,0.00,145.2,WeatherDisplay:10.37,2013-02-22 18:24:00,
2013-02-22 10:25:00,40.0,26.4,29.97,SE,142,6.9,6.9,58,0.00,BKN,,0.00,147.6,WeatherDisplay:10.37,2013-02-22 18:25:00,
2013-02-22 10:27:00,40.0,26.4,29.97,SSW,194,11.5,11.5,58,0.00,BKN,,0.00,150.0,WeatherDisplay:10.37,2013-02-22 18:27:00,
2013-02-22 10:29:00,40.0,26.4,29.97,SW,225,11.5,11.5,58,0.00,BKN,,0.00,160.8,WeatherDisplay:10.37,2013-02-22 18:29:00,
2013-02-22 10:30:00,40.0,26.4,29.97,South,186,15.0,15.0,58,0.00,BKN,,0.00,160.8,WeatherDisplay:10.37,2013-02-22 18:30:00,
2013-02-22 10:32:00,39.9,26.3,29.97,South,180,17.3,17.3,58,0.00,BKN,,0.00,160.8,WeatherDisplay:10.37,2013-02-22 18:32:00,
2013-02-22 10:34:00,40.0,26.4,29.96,SSW,198,11.5,11.5,58,0.00,BKN,,0.00,141.6,WeatherDisplay:10.37,2013-02-22 18:34:00,
2013-02-22 10:35:00,40.0,26.4,29.96,SSE,161,11.5,11.5,58,0.00,BKN,,0.00,141.6,WeatherDisplay:10.37,2013-02-22 18:35:00,
2013-02-22 10:36:00,40.0,26.4,29.96,South,185,15.0,15.0,58,0.00,BKN,,0.00,133.2,WeatherDisplay:10.37,2013-02-22 18:36:00,
2013-02-22 10:37:00,40.0,26.4,29.96,SSE,155,11.5,11.5,58,0.00,BKN,,0.00,133.2,WeatherDisplay:10.37,2013-02-22 18:37:00,
2013-02-22 10:39:00,40.1,26.5,29.96,SSW,207,11.5,11.5,58,0.00,BKN,,0.00,150.0,WeatherDisplay:10.37,2013-02-22 18:39:00,
2013-02-22 10:40:00,40.1,26.5,29.96,SSE,159,11.5,11.5,58,0.00,BKN,,0.00,150.0,WeatherDisplay:10.37,2013-02-22 18:40:00,
2013-02-22 10:41:00,40.2,26.6,29.97,South,177,12.7,12.7,58,0.00,BKN,,0.00,152.4,WeatherDisplay:10.37,2013-02-22 18:41:00,
2013-02-22 10:42:00,40.2,26.6,29.97,SE,137,12.7,12.7,58,0.00,BKN,,0.00,152.4,WeatherDisplay:10.37,2013-02-22 18:42:00,
2013-02-22 10:45:00,40.2,26.6,29.96,SSE,159,15.0,15.0,58,0.00,BKN,,0.00,166.8,WeatherDisplay:10.37,2013-02-22 18:45:00,
2013-02-22 10:46:00,40.2,26.6,29.96,SSE,153,11.0,11.0,58,0.00,BKN,,0.00,169.2,WeatherDisplay:10.37,2013-02-22 18:46:00,
2013-02-22 10:47:00,40.2,26.6,29.96,South,175,11.5,11.5,58,0.00,BKN,,0.00,172.8,WeatherDisplay:10.37,2013-02-22 18:47:00,
2013-02-22 10:50:00,40.4,26.8,29.96,SSE,167,10.4,10.4,58,0.00,BKN,,0.00,178.8,WeatherDisplay:10.37,2013-02-22 18:50:00,
2013-02-22 10:51:00,40.4,26.8,29.96,SSW,202,9.2,9.2,58,0.00,BKN,,0.00,172.8,WeatherDisplay:10.37,2013-02-22 18:51:00,
2013-02-22 10:52:00,40.4,26.8,29.96,SSE,152,11.5,11.5,58,0.00,BKN,,0.00,162.0,WeatherDisplay:10.37,2013-02-22 18:52:00,
2013-02-22 10:53:00,40.5,26.9,29.96,South,178,10.4,10.4,58,0.00,BKN,,0.00,162.0,WeatherDisplay:10.37,2013-02-22 18:53:00,
2013-02-22 10:55:00,40.6,27.0,29.96,SSE,148,11.5,11.5,58,0.00,BKN,,0.00,116.4,WeatherDisplay:10.37,2013-02-22 18:55:00,
2013-02-22 10:56:00,40.6,27.0,29.96,SSW,198,13.8,13.8,58,0.00,BKN,,0.00,105.6,WeatherDisplay:10.37,2013-02-22 18:56:00,
2013-02-22 10:57:00,40.6,27.0,29.96,SSE,168,13.8,13.8,58,0.00,BKN,,0.00,92.4,WeatherDisplay:10.37,2013-02-22 18:57:00,
2013-02-22 10:58:00,40.6,27.0,29.96,South,190,17.3,17.3,58,0.00,BKN,,0.00,91.2,WeatherDisplay:10.37,2013-02-22 18:58:00,
2013-02-22 11:00:00,40.6,27.0,29.95,SSW,206,12.7,12.7,58,0.00,BKN,,0.00,92.4,WeatherDisplay:10.37,2013-02-22 19:00:00,
2013-02-22 11:03:00,40.6,27.4,29.96,South,184,11.5,11.5,59,0.00,BKN,,0.00,97.2,WeatherDisplay:10.37,2013-02-22 19:03:00,
2013-02-22 11:04:00,40.6,27.4,29.96,South,173,11.5,11.5,59,0.00,BKN,,0.00,103.2,WeatherDisplay:10.37,2013-02-22 19:04:00,
2013-02-22 11:06:00,40.7,27.5,29.96,SSE,167,12.7,12.7,59,0.00,BKN,,0.00,117.6,WeatherDisplay:10.37,2013-02-22 19:06:00,
2013-02-22 11:08:00,40.8,27.6,29.95,SW,217,12.7,12.7,59,0.00,BKN,,0.00,133.2,WeatherDisplay:10.37,2013-02-22 19:08:00,
2013-02-22 11:09:00,40.9,27.7,29.95,South,184,12.7,12.7,59,0.00,BKN,,0.00,139.2,WeatherDisplay:10.37,2013-02-22 19:09:00,
2013-02-22 11:11:00,41.0,27.8,29.95,SSW,196,15.0,15.0,59,0.00,BKN,,0.00,139.2,WeatherDisplay:10.37,2013-02-22 19:11:00,
2013-02-22 11:13:00,41.1,27.9,29.95,South,169,15.0,15.0,59,0.00,BKN,,0.00,141.6,WeatherDisplay:10.37,2013-02-22 19:13:00,
2013-02-22 11:14:00,41.1,27.9,29.95,SSE,163,15.0,15.0,59,0.00,BKN,,0.00,145.2,WeatherDisplay:10.37,2013-02-22 19:14:00,
2013-02-22 11:17:00,41.2,27.5,29.95,SSE,151,15.0,15.0,58,0.00,BKN,,0.00,175.2,WeatherDisplay:10.37,2013-02-22 19:17:00,
2013-02-22 11:18:00,41.2,27.9,29.95,SE,145,12.7,12.7,59,0.00,BKN,,0.00,172.8,WeatherDisplay:10.37,2013-02-22 19:18:00,
2013-02-22 11:19:00,41.3,27.6,29.95,SSE,150,11.5,11.5,58,0.00,BKN,,0.00,162.0,WeatherDisplay:10.37,2013-02-22 19:19:00,
2013-02-22 11:20:00,41.3,27.6,29.95,South,173,11.5,11.5,58,0.00,BKN,,0.00,162.0,WeatherDisplay:10.37,2013-02-22 19:20:00,
2013-02-22 11:23:00,41.3,27.6,29.94,SSE,157,13.8,13.8,58,0.00,BKN,,0.00,169.2,WeatherDisplay:10.37,2013-02-22 19:23:00,
2013-02-22 11:25:00,41.2,27.5,29.94,SSE,149,12.7,12.7,58,0.00,BKN,,0.00,195.6,WeatherDisplay:10.37,2013-02-22 19:25:00,
2013-02-22 11:28:00,41.4,27.7,29.94,South,171,9.2,9.2,58,0.00,BKN,,0.00,213.6,WeatherDisplay:10.37,2013-02-22 19:28:00,
2013-02-22 11:29:00,41.5,28.2,29.94,SSW,192,10.4,10.4,59,0.00,BKN,,0.00,228.0,WeatherDisplay:10.37,2013-02-22 19:29:00,
2013-02-22 11:30:00,41.6,27.9,29.94,SSE,151,10.4,10.4,58,0.00,BKN,,0.00,205.2,WeatherDisplay:10.37,2013-02-22 19:30:00,
2013-02-22 11:33:00,41.8,28.1,29.94,South,190,10.4,10.4,58,0.00,BKN,,0.00,195.6,WeatherDisplay:10.37,2013-02-22 19:33:00,
2013-02-22 11:34:00,41.8,28.1,29.93,SSW,200,12.0,12.0,58,0.00,BKN,,0.00,198.0,WeatherDisplay:10.37,2013-02-22 19:34:00,
2013-02-22 11:35:00,41.9,28.2,29.93,South,178,11.5,11.5,58,0.00,BKN,,0.00,200.4,WeatherDisplay:10.37,2013-02-22 19:35:00,
2013-02-22 11:36:00,41.9,28.2,29.93,SSW,207,11.5,11.5,58,0.00,BKN,,0.00,200.4,WeatherDisplay:10.37,2013-02-22 19:36:00,
2013-02-22 11:38:00,42.0,28.3,29.93,South,174,9.0,9.0,58,0.00,BKN,,0.00,225.6,WeatherDisplay:10.37,2013-02-22 19:38:00,
2013-02-22 11:39:00,42.0,28.3,29.93,South,186,9.2,9.2,58,0.00,BKN,,0.00,225.6,WeatherDisplay:10.37,2013-02-22 19:39:00,
2013-02-22 11:40:00,42.0,28.3,29.93,SSW,201,10.4,10.4,58,0.00,BKN,,0.00,230.4,WeatherDisplay:10.37,2013-02-22 19:40:00,
2013-02-22 11:41:00,42.1,28.4,29.93,SSW,196,11.0,11.0,58,0.00,BKN,,0.00,228.0,WeatherDisplay:10.37,2013-02-22 19:41:00,
2013-02-22 11:43:00,42.4,28.7,29.93,SSW,200,12.0,12.0,58,0.00,BKN,,0.00,206.4,WeatherDisplay:10.37,2013-02-22 19:43:00,
2013-02-22 11:45:00,42.6,28.8,29.93,SSE,166,11.5,11.5,58,0.00,BKN,,0.00,205.2,WeatherDisplay:10.37,2013-02-22 19:45:00,
2013-02-22 11:46:00,42.7,28.9,29.93,SSW,195,8.1,8.1,58,0.00,BKN,,0.00,205.2,WeatherDisplay:10.37,2013-02-22 19:46:00,
2013-02-22 11:48:00,42.8,28.6,29.93,SSE,148,11.5,11.5,57,0.00,BKN,,0.00,195.6,WeatherDisplay:10.37,2013-02-22 19:48:00,
2013-02-22 11:50:00,42.7,28.5,29.92,SE,140,8.1,8.1,57,0.00,BKN,,0.00,186.0,WeatherDisplay:10.37,2013-02-22 19:50:00,
2013-02-22 11:52:00,42.6,28.4,29.92,SSE,159,9.0,9.0,57,0.00,BKN,,0.00,150.0,WeatherDisplay:10.37,2013-02-22 19:52:00,
2013-02-22 11:54:00,42.5,28.3,29.92,South,170,9.2,9.2,57,0.00,BKN,,0.00,150.0,WeatherDisplay:10.37,2013-02-22 19:54:00,
2013-02-22 11:56:00,42.5,28.8,29.92,South,184,11.5,11.5,58,0.00,BKN,,0.00,170.4,WeatherDisplay:10.37,2013-02-22 19:56:00,
2013-02-22 11:57:00,42.6,28.8,29.92,SSE,167,10.4,10.4,58,0.00,BKN,,0.00,195.6,WeatherDisplay:10.37,2013-02-22 19:57:00,
2013-02-22 11:59:00,42.8,29.0,29.92,SSE,158,10.4,10.4,58,0.00,BKN,,0.00,234.0,WeatherDisplay:10.37,2013-02-22 19:59:00,
2013-02-22 12:01:00,42.8,29.0,29.92,SSE,159,11.5,11.5,58,0.00,BKN,,0.00,256.8,WeatherDisplay:10.37,2013-02-22 20:01:00,
2013-02-22 12:02:00,43.0,29.2,29.92,SSE,155,10.4,10.4,58,0.00,BKN,,0.00,276.0,WeatherDisplay:10.37,2013-02-22 20:02:00,
2013-02-22 12:04:00,43.2,29.4,29.92,SSE,162,10.4,10.4,58,0.00,BKN,,0.00,297.6,WeatherDisplay:10.37,2013-02-22 20:04:00,
2013-02-22 12:06:00,43.5,29.7,29.92,SSE,167,11.5,11.5,58,0.00,BKN,,0.00,309.6,WeatherDisplay:10.37,2013-02-22 20:06:00,
2013-02-22 12:07:00,43.6,29.4,29.92,SE,128,14.0,14.0,57,0.00,BKN,,0.00,308.4,WeatherDisplay:10.37,2013-02-22 20:07:00,
2013-02-22 12:09:00,43.8,29.5,29.92,SE,128,18.4,18.4,57,0.00,BKN,,0.00,308.4,WeatherDisplay:10.37,2013-02-22 20:09:00,
2013-02-22 12:11:00,43.9,29.6,29.92,SSE,152,11.5,11.5,57,0.00,SCT,,0.00,297.6,WeatherDisplay:10.37,2013-02-22 20:11:00,
2013-02-22 12:13:00,44.0,29.3,29.91,SSE,148,13.0,13.0,56,0.00,SCT,,0.00,295.2,WeatherDisplay:10.37,2013-02-22 20:13:00,
2013-02-22 12:14:00,44.2,29.5,29.91,South,171,12.7,12.7,56,0.00,SCT,,0.00,284.4,WeatherDisplay:10.37,2013-02-22 20:14:00,
2013-02-22 12:16:00,44.3,29.6,29.91,SSW,198,11.5,11.5,56,0.00,SCT,,0.00,295.2,WeatherDisplay:10.37,2013-02-22 20:16:00,
2013-02-22 12:17:00,44.4,29.2,29.91,SE,140,12.0,12.0,55,0.00,SCT,,0.00,345.6,WeatherDisplay:10.37,2013-02-22 20:17:00,
2013-02-22 12:18:00,44.5,29.3,29.91,South,170,18.4,18.4,55,0.00,SCT,,0.00,283.2,WeatherDisplay:10.37,2013-02-22 20:18:00,
2013-02-22 12:20:00,44.6,29.4,29.90,South,175,11.5,11.5,55,0.00,SCT,,0.00,270.0,WeatherDisplay:10.37,2013-02-22 20:20:00,
2013-02-22 12:22:00,44.7,29.5,29.90,South,189,16.1,16.1,55,0.00,SCT,,0.00,256.8,WeatherDisplay:10.37,2013-02-22 20:22:00,
2013-02-22 12:23:00,44.7,29.5,29.90,South,185,19.6,19.6,55,0.00,SCT,,0.00,253.2,WeatherDisplay:10.37,2013-02-22 20:23:00,
2013-02-22 12:25:00,44.7,29.5,29.91,SSW,205,15.0,15.0,55,0.00,BKN,,0.00,242.4,WeatherDisplay:10.37,2013-02-22 20:25:00,
2013-02-22 12:27:00,44.8,29.6,29.90,South,181,10.4,10.4,55,0.00,BKN,,0.00,253.2,WeatherDisplay:10.37,2013-02-22 20:27:00,
2013-02-22 12:28:00,44.9,29.7,29.90,SSW,193,15.0,15.0,55,0.00,BKN,,0.00,250.8,WeatherDisplay:10.37,2013-02-22 20:28:00,
2013-02-22 12:30:00,45.0,29.8,29.90,South,188,11.5,11.5,55,0.00,BKN,,0.00,238.8,WeatherDisplay:10.37,2013-02-22 20:30:00,
2013-02-22 12:32:00,45.0,29.8,29.90,South,172,12.7,12.7,55,0.00,BKN,,0.00,186.0,WeatherDisplay:10.37,2013-02-22 20:32:00,
2013-02-22 12:33:00,45.0,29.3,29.91,WSW,245,13.8,13.8,54,0.00,BKN,,0.00,175.2,WeatherDisplay:10.37,2013-02-22 20:33:00,
2013-02-22 12:34:00,45.0,29.3,29.91,WSW,245,13.8,13.8,54,0.00,BKN,,0.00,175.2,WeatherDisplay:10.37,2013-02-22 20:34:00,
2013-02-22 12:35:00,45.0,29.3,29.90,SW,230,11.5,11.5,54,0.00,BKN,,0.00,175.2,WeatherDisplay:10.37,2013-02-22 20:35:00,
2013-02-22 12:37:00,45.0,29.3,29.90,SSW,194,15.0,15.0,54,0.00,BKN,,0.00,175.2,WeatherDisplay:10.37,2013-02-22 20:37:00,
2013-02-22 12:39:00,45.0,29.3,29.90,South,190,18.4,18.4,54,0.00,BKN,,0.00,186.0,WeatherDisplay:10.37,2013-02-22 20:39:00,
2013-02-22 12:41:00,45.1,29.4,29.90,South,185,10.0,10.0,54,0.00,BKN,,0.00,211.2,WeatherDisplay:10.37,2013-02-22 20:41:00,
2013-02-22 12:43:00,45.3,29.2,29.90,SSW,204,13.8,13.8,53,0.00,BKN,,0.00,256.8,WeatherDisplay:10.37,2013-02-22 20:43:00,
2013-02-22 12:44:00,45.3,29.2,29.90,SSW,210,13.8,13.8,53,0.00,BKN,,0.00,256.8,WeatherDisplay:10.37,2013-02-22 20:44:00,
2013-02-22 12:46:00,45.5,29.3,29.90,SW,225,8.1,8.1,53,0.00,BKN,,0.00,264.0,WeatherDisplay:10.37,2013-02-22 20:46:00,
2013-02-22 12:48:00,45.7,29.1,29.90,SW,222,19.6,19.6,52,0.00,BKN,,0.00,284.4,WeatherDisplay:10.37,2013-02-22 20:48:00,
2013-02-22 12:49:00,45.7,29.1,29.90,SW,215,13.8,13.8,52,0.00,BKN,,0.00,284.4,WeatherDisplay:10.37,2013-02-22 20:49:00,
2013-02-22 12:51:00,45.9,29.2,29.89,SW,232,10.4,10.4,52,0.00,BKN,,0.00,297.6,WeatherDisplay:10.37,2013-02-22 20:51:00,
2013-02-22 12:53:00,46.1,29.4,29.89,SW,219,11.5,11.5,52,0.00,SCT,,0.00,325.2,WeatherDisplay:10.37,2013-02-22 20:53:00,
2013-02-22 12:54:00,46.1,29.4,29.89,SW,214,13.8,13.8,52,0.00,SCT,,0.00,316.8,WeatherDisplay:10.37,2013-02-22 20:54:00,
2013-02-22 12:56:00,46.3,29.1,29.90,WSW,238,16.1,16.1,51,0.00,SCT,,0.00,306.0,WeatherDisplay:10.37,2013-02-22 20:56:00,
2013-02-22 12:58:00,46.4,29.2,29.89,SW,221,13.0,13.0,51,0.00,SCT,,0.00,256.8,WeatherDisplay:10.37,2013-02-22 20:58:00,
2013-02-22 12:59:00,46.4,28.8,29.89,WSW,244,16.1,16.1,50,0.00,SCT,,0.00,256.8,WeatherDisplay:10.37,2013-02-22 20:59:00,
2013-02-22 13:00:00,46.3,29.1,29.89,SW,234,15.0,15.0,51,0.00,SCT,,0.00,289.2,WeatherDisplay:10.37,2013-02-22 21:00:00,
2013-02-22 13:01:00,46.3,29.1,29.89,SSE,153,11.5,11.5,51,0.00,SCT,,0.00,289.2,WeatherDisplay:10.37,2013-02-22 21:01:00,
2013-02-22 13:04:00,46.4,28.8,29.89,South,178,17.3,17.3,50,0.00,SCT,,0.00,284.4,WeatherDisplay:10.37,2013-02-22 21:04:00,
2013-02-22 13:05:00,46.5,28.8,29.89,SSW,213,15.0,15.0,50,0.00,SCT,,0.00,247.2,WeatherDisplay:10.37,2013-02-22 21:05:00,
2013-02-22 13:06:00,46.5,28.8,29.89,ESE,121,13.8,13.8,50,0.00,SCT,,0.00,234.0,WeatherDisplay:10.37,2013-02-22 21:06:00,
2013-02-22 13:09:00,46.5,29.3,29.89,SSW,213,10.4,10.4,51,0.00,BKN,,0.00,228.0,WeatherDisplay:10.37,2013-02-22 21:09:00,
2013-02-22 13:10:00,46.5,29.3,29.89,SW,225,12.0,12.0,51,0.00,BKN,,0.00,236.4,WeatherDisplay:10.37,2013-02-22 21:10:00,
2013-02-22 13:11:00,46.6,29.4,29.89,SW,221,12.7,12.7,51,0.00,BKN,,0.00,270.0,WeatherDisplay:10.37,2013-02-22 21:11:00,
2013-02-22 13:14:00,46.7,29.5,29.89,WSW,253,11.5,11.5,51,0.00,BKN,,0.00,261.6,WeatherDisplay:10.37,2013-02-22 21:14:00,
2013-02-22 13:15:00,46.6,29.4,29.89,SW,216,16.1,16.1,51,0.00,BKN,,0.00,253.2,WeatherDisplay:10.37,2013-02-22 21:15:00,
2013-02-22 13:16:00,46.5,29.3,29.89,WSW,237,15.0,15.0,51,0.00,BKN,,0.00,242.4,WeatherDisplay:10.37,2013-02-22 21:16:00,
2013-02-22 13:19:00,46.4,29.2,29.89,SW,224,13.8,13.8,51,0.00,BKN,,0.00,219.6,WeatherDisplay:10.37,2013-02-22 21:19:00,
2013-02-22 13:20:00,46.4,29.2,29.89,SW,234,16.0,16.0,51,0.00,BKN,,0.00,206.4,WeatherDisplay:10.37,2013-02-22 21:20:00,
2013-02-22 13:22:00,46.4,29.7,29.88,WSW,238,11.5,11.5,52,0.00,BKN,,0.00,187.2,WeatherDisplay:10.37,2013-02-22 21:22:00,
2013-02-22 13:24:00,46.4,29.7,29.89,SW,217,12.7,12.7,52,0.00,BKN,,0.00,169.2,WeatherDisplay:10.37,2013-02-22 21:24:00,
2013-02-22 13:25:00,46.4,29.7,29.89,SW,216,12.7,12.7,52,0.00,BKN,,0.00,175.2,WeatherDisplay:10.37,2013-02-22 21:25:00,
2013-02-22 13:26:00,46.4,29.7,29.89,SW,229,12.0,12.0,52,0.00,BKN,,0.00,186.0,WeatherDisplay:10.37,2013-02-22 21:26:00,
2013-02-22 13:28:00,46.3,29.6,29.88,SW,228,12.0,12.0,52,0.00,BKN,,0.00,178.8,WeatherDisplay:10.37,2013-02-22 21:28:00,
2013-02-22 13:29:00,46.2,30.0,29.88,South,189,11.5,11.5,53,0.00,BKN,,0.00,170.4,WeatherDisplay:10.37,2013-02-22 21:29:00,
2013-02-22 13:30:00,46.1,29.9,29.89,SW,221,11.5,11.5,53,0.00,BKN,,0.00,166.8,WeatherDisplay:10.37,2013-02-22 21:30:00,
2013-02-22 13:32:00,45.9,29.7,29.89,WSW,238,19.6,19.6,53,0.00,BKN,,0.00,150.0,WeatherDisplay:10.37,2013-02-22 21:32:00,
2013-02-22 13:34:00,45.5,29.8,29.88,SW,234,12.7,12.7,54,0.00,BKN,,0.00,169.2,WeatherDisplay:10.37,2013-02-22 21:34:00,
2013-02-22 13:35:00,45.5,29.8,29.88,SSW,207,11.5,11.5,54,0.00,BKN,,0.00,170.4,WeatherDisplay:10.37,2013-02-22 21:35:00,
2013-02-22 13:37:00,45.3,30.1,29.88,SSW,200,11.5,11.5,55,0.00,BKN,,0.00,152.4,WeatherDisplay:10.37,2013-02-22 21:37:00,
2013-02-22 13:39:00,45.2,30.0,29.88,SW,221,11.5,11.5,55,0.00,BKN,,0.00,144.0,WeatherDisplay:10.37,2013-02-22 21:39:00,
2013-02-22 13:40:00,45.2,30.0,29.88,SE,146,8.1,8.1,55,0.00,BKN,,0.00,147.6,WeatherDisplay:10.37,2013-02-22 21:40:00,
2013-02-22 13:42:00,45.1,30.3,29.88,WSW,238,12.7,12.7,56,0.00,BKN,,0.00,160.8,WeatherDisplay:10.37,2013-02-22 21:42:00,
2013-02-22 13:44:00,45.0,30.2,29.88,WSW,249,9.2,9.2,56,0.00,BKN,,0.00,145.2,WeatherDisplay:10.37,2013-02-22 21:44:00,
2013-02-22 13:45:00,45.0,30.2,29.88,SW,216,10.4,10.4,56,0.00,BKN,,0.00,144.0,WeatherDisplay:10.37,2013-02-22 21:45:00,
2013-02-22 13:48:00,44.9,29.7,29.87,South,188,11.5,11.5,55,0.00,BKN,,0.00,158.4,WeatherDisplay:10.37,2013-02-22 21:48:00,
2013-02-22 13:49:00,44.7,30.0,29.87,SSE,161,10.4,10.4,56,0.00,BKN,,0.00,141.6,WeatherDisplay:10.37,2013-02-22 21:49:00,
2013-02-22 13:50:00,44.7,30.0,29.86,SSW,200,13.0,13.0,56,0.00,BKN,,0.00,135.6,WeatherDisplay:10.37,2013-02-22 21:50:00,
2013-02-22 13:52:00,44.7,30.4,29.86,SSW,197,9.2,9.2,57,0.00,BKN,,0.00,150.0,WeatherDisplay:10.37,2013-02-22 21:52:00,
2013-02-22 13:53:00,44.7,30.4,29.86,SSW,208,9.2,9.2,57,0.00,BKN,,0.00,150.0,WeatherDisplay:10.37,2013-02-22 21:53:00,
2013-02-22 13:55:00,44.6,30.3,29.86,SSW,205,11.5,11.5,57,0.00,BKN,,0.00,166.8,WeatherDisplay:10.37,2013-02-22 21:55:00,
2013-02-22 13:57:00,44.5,30.2,29.86,SE,140,13.8,13.8,57,0.00,BKN,,0.00,169.2,WeatherDisplay:10.37,2013-02-22 21:57:00,
2013-02-22 13:58:00,44.5,30.2,29.86,SW,223,13.8,13.8,57,0.00,BKN,,0.00,158.4,WeatherDisplay:10.37,2013-02-22 21:58:00,
2013-02-22 14:00:00,44.3,30.4,29.87,SW,219,16.1,16.1,58,0.00,BKN,,0.00,141.6,WeatherDisplay:10.37,2013-02-22 22:00:00,
2013-02-22 14:02:00,44.1,31.1,29.86,SSE,151,11.5,11.5,60,0.00,BKN,,0.00,139.2,WeatherDisplay:10.37,2013-02-22 22:02:00,
2013-02-22 14:03:00,44.0,31.0,29.86,SSE,151,11.5,11.5,60,0.00,BKN,,0.00,136.8,WeatherDisplay:10.37,2013-02-22 22:03:00,
2013-02-22 14:05:00,43.8,31.2,29.86,SSW,213,10.4,10.4,61,0.00,BKN,,0.00,116.4,WeatherDisplay:10.37,2013-02-22 22:05:00,
2013-02-22 14:08:00,43.7,31.5,29.86,SSW,202,9.2,9.2,62,0.00,BKN,,0.00,103.2,WeatherDisplay:10.37,2013-02-22 22:08:00,
2013-02-22 14:10:00,43.5,30.9,29.87,South,189,10.4,10.4,61,0.00,BKN,,0.00,99.6,WeatherDisplay:10.37,2013-02-22 22:10:00,
2013-02-22 14:11:00,43.4,30.8,29.86,South,178,10.4,10.4,61,0.00,BKN,,0.00,99.6,WeatherDisplay:10.37,2013-02-22 22:11:00,
2013-02-22 14:13:00,43.4,30.8,29.86,South,178,8.1,8.1,61,0.00,BKN,,0.00,97.2,WeatherDisplay:10.37,2013-02-22 22:13:00,
2013-02-22 14:14:00,43.3,30.7,29.86,South,176,9.0,9.0,61,0.00,BKN,,0.00,94.8,WeatherDisplay:10.37,2013-02-22 22:14:00,
2013-02-22 14:16:00,43.3,30.7,29.86,SSE,152,12.0,12.0,61,0.00,BKN,,0.00,97.2,WeatherDisplay:10.37,2013-02-22 22:16:00,
2013-02-22 14:18:00,43.1,30.1,29.86,SSW,207,15.0,15.0,60,0.00,BKN,,0.00,94.8,WeatherDisplay:10.37,2013-02-22 22:18:00,
2013-02-22 14:20:00,42.9,30.4,29.86,SSE,150,15.0,15.0,61,0.00,BKN,,0.00,88.8,WeatherDisplay:10.37,2013-02-22 22:20:00,
2013-02-22 14:21:00,42.7,30.6,29.86,SW,230,10.4,10.4,62,0.00,BKN,,0.00,86.4,WeatherDisplay:10.37,2013-02-22 22:21:00,
2013-02-22 14:22:00,42.7,30.6,29.86,SSW,202,11.5,11.5,62,0.00,BKN,,0.00,84.0,WeatherDisplay:10.37,2013-02-22 22:22:00,
2013-02-22 14:23:00,42.6,30.5,29.86,South,182,10.4,10.4,62,0.00,BKN,,0.00,84.0,WeatherDisplay:10.37,2013-02-22 22:23:00,
2013-02-22 14:25:00,42.5,30.8,29.86,SSE,159,15.0,15.0,63,0.00,BKN,,0.00,94.8,WeatherDisplay:10.37,2013-02-22 22:25:00,
2013-02-22 14:26:00,42.4,30.7,29.86,SSW,204,15.0,15.0,63,0.00,BKN,,0.00,100.8,WeatherDisplay:10.37,2013-02-22 22:26:00,
2013-02-22 14:27:00,42.4,30.7,29.86,West,265,16.1,16.1,63,0.00,BKN,,0.00,99.6,WeatherDisplay:10.37,2013-02-22 22:27:00,
2013-02-22 14:28:00,42.5,30.8,29.86,SSW,211,16.1,16.1,63,0.00,BKN,,0.00,84.0,WeatherDisplay:10.37,2013-02-22 22:28:00,
2013-02-22 14:30:00,42.4,30.7,29.86,SSW,192,17.3,17.3,63,0.00,BKN,,0.00,80.4,WeatherDisplay:10.37,2013-02-22 22:30:00,
2013-02-22 14:32:00,42.3,30.6,29.86,SW,215,9.2,9.2,63,0.00,BKN,,0.00,78.0,WeatherDisplay:10.37,2013-02-22 22:32:00,
2013-02-22 14:33:00,42.3,31.0,29.86,SSE,154,8.1,8.1,64,0.00,BKN,,0.00,72.0,WeatherDisplay:10.37,2013-02-22 22:33:00,
2013-02-22 14:35:00,42.3,31.0,29.86,SSW,201,11.5,11.5,64,0.00,BKN,,0.00,74.4,WeatherDisplay:10.37,2013-02-22 22:35:00,
2013-02-22 14:37:00,42.3,31.4,29.86,West,265,6.9,6.9,65,0.00,BKN,,0.00,75.6,WeatherDisplay:10.37,2013-02-22 22:37:00,
2013-02-22 14:39:00,42.2,31.3,29.87,SW,222,11.5,11.5,65,0.00,BKN,,0.00,72.0,WeatherDisplay:10.37,2013-02-22 22:39:00,
2013-02-22 14:40:00,42.0,31.5,29.87,SSW,212,12.7,12.7,66,0.00,BKN,,0.00,82.8,WeatherDisplay:10.37,2013-02-22 22:40:00,
2013-02-22 14:42:00,42.0,31.5,29.87,SSW,205,11.5,11.5,66,0.00,BKN,,0.00,97.2,WeatherDisplay:10.37,2013-02-22 22:42:00,
2013-02-22 14:44:00,41.9,31.7,29.86,South,180,10.4,10.4,67,0.00,BKN,,0.00,97.2,WeatherDisplay:10.37,2013-02-22 22:44:00,
2013-02-22 14:46:00,41.8,31.6,29.86,SSE,165,10.4,10.4,67,0.00,BKN,,0.00,86.4,WeatherDisplay:10.37,2013-02-22 22:46:00,
2013-02-22 14:47:00,41.8,31.6,29.86,South,175,11.5,11.5,67,0.00,BKN,,0.00,75.6,WeatherDisplay:10.37,2013-02-22 22:47:00,
2013-02-22 14:48:00,41.8,31.6,29.86,SSE,165,11.5,11.5,67,0.00,BKN,,0.00,78.0,WeatherDisplay:10.37,2013-02-22 22:48:00,
2013-02-22 14:49:00,41.7,31.9,29.86,SW,217,9.2,9.2,68,0.00,BKN,,0.00,78.0,WeatherDisplay:10.37,2013-02-22 22:49:00,
2013-02-22 14:51:00,41.7,31.9,29.86,SSW,193,9.2,9.2,68,0.00,BKN,,0.00,78.0,WeatherDisplay:10.37,2013-02-22 22:51:00,
2013-02-22 14:52:00,41.6,31.8,29.86,SSE,163,6.9,6.9,68,0.00,BKN,,0.00,78.0,WeatherDisplay:10.37,2013-02-22 22:52:00,
2013-02-22 14:53:00,41.6,31.8,29.86,South,176,6.9,6.9,68,0.00,BKN,,0.00,80.4,WeatherDisplay:10.37,2013-02-22 22:53:00,
2013-02-22 14:54:00,41.6,31.8,29.86,South,190,6.9,6.9,68,0.00,BKN,,0.00,80.4,WeatherDisplay:10.37,2013-02-22 22:54:00,
2013-02-22 14:56:00,41.6,31.8,29.86,SE,138,13.8,13.8,68,0.00,BKN,,0.00,72.0,WeatherDisplay:10.37,2013-02-22 22:56:00,
2013-02-22 14:57:00,41.6,31.8,29.86,South,187,15.0,15.0,68,0.00,BKN,,0.00,74.4,WeatherDisplay:10.37,2013-02-22 22:57:00,
2013-02-22 14:58:00,41.6,31.8,29.87,SSE,157,11.5,11.5,68,0.00,BKN,,0.00,78.0,WeatherDisplay:10.37,2013-02-22 22:58:00,
2013-02-22 14:59:00,41.7,31.9,29.87,SW,224,10.4,10.4,68,0.00,BKN,,0.00,78.0,WeatherDisplay:10.37,2013-02-22 22:59:00,
2013-02-22 15:01:00,41.8,31.6,29.87,SW,219,11.5,11.5,67,0.00,BKN,,0.00,78.0,WeatherDisplay:10.37,2013-02-22 23:01:00,
2013-02-22 15:02:00,41.8,31.6,29.87,SSW,196,7.0,7.0,67,0.00,BKN,,0.00,75.6,WeatherDisplay:10.37,2013-02-22 23:02:00,
2013-02-22 15:03:00,41.9,31.7,29.87,SW,229,6.9,6.9,67,0.00,BKN,,0.00,80.4,WeatherDisplay:10.37,2013-02-22 23:03:00,
2013-02-22 15:04:00,41.9,31.7,29.87,SW,221,6.9,6.9,67,0.00,BKN,,0.00,82.8,WeatherDisplay:10.37,2013-02-22 23:04:00,
2013-02-22 15:07:00,42.0,31.8,29.87,SW,224,4.6,4.6,67,0.00,BKN,,0.00,80.4,WeatherDisplay:10.37,2013-02-22 23:07:00,
2013-02-22 15:08:00,42.0,31.8,29.87,SW,219,6.9,6.9,67,0.00,BKN,,0.00,72.0,WeatherDisplay:10.37,2013-02-22 23:08:00,
2013-02-22 15:09:00,42.1,31.6,29.87,West,261,5.8,5.8,66,0.00,BKN,,0.00,72.0,WeatherDisplay:10.37,2013-02-22 23:09:00,
2013-02-22 15:12:00,42.1,31.9,29.88,WSW,240,11.5,11.5,67,0.00,BKN,,0.00,72.0,WeatherDisplay:10.37,2013-02-22 23:12:00,
2013-02-22 15:13:00,42.1,31.9,29.88,SW,228,10.4,10.4,67,0.00,BKN,,0.00,75.6,WeatherDisplay:10.37,2013-02-22 23:13:00,
2013-02-22 15:14:00,42.0,31.8,29.89,SW,221,11.5,11.5,67,0.00,BKN,,0.00,82.8,WeatherDisplay:10.37,2013-02-22 23:14:00,
2013-02-22 15:17:00,41.9,32.5,29.89,SW,229,6.9,6.9,69,0.00,BKN,,0.00,116.4,WeatherDisplay:10.37,2013-02-22 23:17:00,
2013-02-22 15:18:00,41.9,32.1,29.89,WSW,257,8.1,8.1,68,0.00,BKN,,0.00,109.2,WeatherDisplay:10.37,2013-02-22 23:18:00,
2013-02-22 15:19:00,41.9,32.5,29.89,WSW,244,10.4,10.4,69,0.00,BKN,,0.00,117.6,WeatherDisplay:10.37,2013-02-22 23:19:00,
2013-02-22 15:22:00,41.8,32.7,29.89,SW,227,9.2,9.2,70,0.00,BKN,,0.00,94.8,WeatherDisplay:10.37,2013-02-22 23:22:00,
2013-02-22 15:23:00,41.8,33.1,29.89,SW,227,13.0,13.0,71,0.00,BKN,,0.00,92.4,WeatherDisplay:10.37,2013-02-22 23:23:00,
2013-02-22 15:24:00,42.0,32.9,29.89,WSW,243,12.7,12.7,70,0.00,BKN,,0.00,100.8,WeatherDisplay:10.37,2013-02-22 23:24:00,
2013-02-22 15:27:00,41.9,33.2,29.89,WSW,238,9.2,9.2,71,0.00,BKN,,0.00,128.4,WeatherDisplay:10.37,2013-02-22 23:27:00,
2013-02-22 15:28:00,41.8,33.1,29.88,SSE,164,6.9,6.9,71,0.00,BKN,,0.00,136.8,WeatherDisplay:10.37,2013-02-22 23:28:00,
2013-02-22 15:29:00,41.8,33.4,29.88,SSW,204,8.1,8.1,72,0.00,BKN,,0.00,145.2,WeatherDisplay:10.37,2013-02-22 23:29:00,
2013-02-22 15:32:00,42.0,33.3,29.88,SW,234,6.9,6.9,71,0.00,BKN,,0.00,166.8,WeatherDisplay:10.37,2013-02-22 23:32:00,
2013-02-22 15:33:00,42.1,33.4,29.88,SW,229,8.1,8.1,71,0.00,BKN,,0.00,177.6,WeatherDisplay:10.37,2013-02-22 23:33:00,
2013-02-22 15:34:00,42.1,33.4,29.88,WSW,238,8.1,8.1,71,0.00,BKN,,0.00,177.6,WeatherDisplay:10.37,2013-02-22 23:34:00,
2013-02-22 15:37:00,42.2,33.5,29.88,SSW,192,6.9,6.9,71,0.00,SCT,,0.00,194.4,WeatherDisplay:10.37,2013-02-22 23:37:00,
2013-02-22 15:39:00,42.2,33.5,29.86,SSW,196,5.8,5.8,71,0.00,SCT,,0.00,192.0,WeatherDisplay:10.37,2013-02-22 23:39:00,
2013-02-22 15:43:00,42.4,33.3,29.86,SSW,207,6.9,6.9,70,0.00,SCT,,0.00,172.8,WeatherDisplay:10.37,2013-02-22 23:43:00,
2013-02-22 15:44:00,42.5,33.4,29.86,SSW,209,8.0,8.0,70,0.00,SCT,,0.00,164.4,WeatherDisplay:10.37,2013-02-22 23:44:00,
2013-02-22 15:45:00,42.6,33.1,29.86,SSW,193,8.1,8.1,69,0.00,SCT,,0.00,160.8,WeatherDisplay:10.37,2013-02-22 23:45:00,
2013-02-22 15:49:00,42.7,33.2,29.85,SSE,157,4.6,4.6,69,0.00,SCT,,0.00,156.0,WeatherDisplay:10.37,2013-02-22 23:49:00,
2013-02-22 15:50:00,42.7,33.6,29.85,South,179,8.1,8.1,70,0.00,SCT,,0.00,153.6,WeatherDisplay:10.37,2013-02-22 23:50:00,
2013-02-22 15:54:00,42.3,33.2,29.85,South,169,6.9,6.9,70,0.00,SCT,,0.00,150.0,WeatherDisplay:10.37,2013-02-22 23:54:00,
2013-02-22 15:55:00,42.3,33.6,29.85,SE,130,4.6,4.6,71,0.00,SCT,,0.00,153.6,WeatherDisplay:10.37,2013-02-22 23:55:00,
2013-02-22 15:59:00,42.2,33.1,29.84,SSE,155,5.0,5.0,70,0.00,SCT,,0.00,164.4,WeatherDisplay:10.37,2013-02-22 23:59:00,
2013-02-22 16:00:00,42.1,33.0,29.83,SSE,167,6.9,6.9,70,0.00,SCT,,0.00,164.4,WeatherDisplay:10.37,2013-02-23 00:00:00,
2013-02-22 16:04:00,41.8,32.7,29.84,SE,140,10.4,10.4,70,0.00,SCT,,0.00,147.6,WeatherDisplay:10.37,2013-02-23 00:04:00,
2013-02-22 16:05:00,41.8,32.7,29.83,SSE,155,11.0,11.0,70,0.00,SCT,,0.00,145.2,WeatherDisplay:10.37,2013-02-23 00:05:00,
2013-02-22 16:09:00,41.5,32.8,29.83,SSW,194,8.1,8.1,71,0.00,FEW,,0.00,152.4,WeatherDisplay:10.37,2013-02-23 00:09:00,
2013-02-22 16:10:00,41.5,32.8,29.83,SE,144,8.1,8.1,71,0.00,FEW,,0.00,147.6,WeatherDisplay:10.37,2013-02-23 00:10:00,
2013-02-22 16:11:00,41.4,32.7,29.83,South,171,8.1,8.1,71,0.00,FEW,,0.00,169.2,WeatherDisplay:10.37,2013-02-23 00:11:00,
2013-02-22 16:15:00,41.3,32.6,29.82,SSE,156,11.5,11.5,71,0.00,FEW,,0.00,145.2,WeatherDisplay:10.37,2013-02-23 00:15:00,
2013-02-22 16:16:00,41.2,32.5,29.82,SSE,151,8.1,8.1,71,0.00,FEW,,0.00,144.0,WeatherDisplay:10.37,2013-02-23 00:16:00,
2013-02-22 16:20:00,41.0,32.3,29.82,SSW,206,12.7,12.7,71,0.00,FEW,,0.00,126.0,WeatherDisplay:10.37,2013-02-23 00:20:00,
2013-02-22 16:21:00,40.9,32.6,29.82,South,184,12.7,12.7,72,0.00,FEW,,0.00,124.8,WeatherDisplay:10.37,2013-02-23 00:21:00,
2013-02-22 16:25:00,40.9,32.6,29.82,SSE,162,11.5,11.5,72,0.00,FEW,,0.00,116.4,WeatherDisplay:10.37,2013-02-23 00:25:00,
2013-02-22 16:26:00,40.7,32.4,29.82,SSW,206,11.5,11.5,72,0.00,FEW,,0.00,111.6,WeatherDisplay:10.37,2013-02-23 00:26:00,
2013-02-22 16:30:00,40.5,32.5,29.83,South,173,10.4,10.4,73,0.00,FEW,,0.00,114.0,WeatherDisplay:10.37,2013-02-23 00:30:00,
2013-02-22 16:31:00,40.4,32.4,29.83,South,174,10.4,10.4,73,0.00,FEW,,0.00,108.0,WeatherDisplay:10.37,2013-02-23 00:31:00,
2013-02-22 16:35:00,40.3,32.3,29.84,South,185,10.4,10.4,73,0.00,FEW,,0.00,108.0,WeatherDisplay:10.37,2013-02-23 00:35:00,
2013-02-22 16:37:00,40.3,32.3,29.83,South,186,11.5,11.5,73,0.00,FEW,,0.00,103.2,WeatherDisplay:10.37,2013-02-23 00:37:00,
2013-02-22 16:40:00,40.2,32.2,29.83,SSE,166,12.7,12.7,73,0.00,FEW,,0.00,99.6,WeatherDisplay:10.37,2013-02-23 00:40:00,
2013-02-22 16:42:00,40.2,32.6,29.83,SSW,197,11.5,11.5,74,0.00,FEW,,0.00,92.4,WeatherDisplay:10.37,2013-02-23 00:42:00,
2013-02-22 16:45:00,40.1,32.1,29.83,SSW,196,11.5,11.5,73,0.00,SCT,,0.00,78.0,WeatherDisplay:10.37,2013-02-23 00:45:00,
2013-02-22 16:47:00,40.2,32.6,29.83,SSW,193,6.9,6.9,74,0.00,SCT,,0.00,78.0,WeatherDisplay:10.37,2013-02-23 00:47:00,
2013-02-22 16:48:00,40.2,32.2,29.83,South,172,5.8,5.8,73,0.00,SCT,,0.00,80.4,WeatherDisplay:10.37,2013-02-23 00:48:00,
2013-02-22 16:50:00,40.3,32.3,29.83,SSE,162,6.9,6.9,73,0.00,CLR,,0.00,91.2,WeatherDisplay:10.37,2013-02-23 00:50:00,
2013-02-22 16:51:00,40.4,32.4,29.83,SE,126,6.9,6.9,73,0.00,CLR,,0.00,97.2,WeatherDisplay:10.37,2013-02-23 00:51:00,
2013-02-22 16:52:00,40.5,32.5,29.83,SSE,167,9.2,9.2,73,0.00,CLR,,0.00,99.6,WeatherDisplay:10.37,2013-02-23 00:52:00,
2013-02-22 16:54:00,40.6,32.3,29.82,SSE,156,13.8,13.8,72,0.00,CLR,,0.00,97.2,WeatherDisplay:10.37,2013-02-23 00:54:00,
2013-02-22 16:56:00,40.7,32.4,29.82,SSE,150,11.5,11.5,72,0.00,CLR,,0.00,116.4,WeatherDisplay:10.37,2013-02-23 00:56:00,
2013-02-22 16:57:00,40.7,32.4,29.82,SSE,150,10.0,10.0,72,0.00,CLR,,0.00,108.0,WeatherDisplay:10.37,2013-02-23 00:57:00,
2013-02-22 16:59:00,40.8,32.5,29.83,SE,137,9.2,9.2,72,0.00,CLR,,0.00,80.4,WeatherDisplay:10.37,2013-02-23 00:59:00,
2013-02-22 17:01:00,40.8,32.1,29.82,SE,128,9.0,9.0,71,0.00,FEW,,0.00,61.2,WeatherDisplay:10.37,2013-02-23 01:01:00,
2013-02-22 17:02:00,40.8,32.1,29.83,South,185,9.2,9.2,71,0.00,FEW,,0.00,52.8,WeatherDisplay:10.37,2013-02-23 01:02:00,
2013-02-22 17:04:00,40.8,32.1,29.83,SSE,155,4.6,4.6,71,0.00,SCT,,0.00,46.8,WeatherDisplay:10.37,2013-02-23 01:04:00,
2013-02-22 17:06:00,40.8,32.1,29.82,SW,223,7.0,7.0,71,0.00,SCT,,0.00,36.0,WeatherDisplay:10.37,2013-02-23 01:06:00,
2013-02-22 17:07:00,40.8,31.8,29.82,ESE,115,9.0,9.0,70,0.00,SCT,,0.00,36.0,WeatherDisplay:10.37,2013-02-23 01:07:00,
2013-02-22 17:09:00,40.9,31.9,29.82,ESE,119,6.9,6.9,70,0.00,BKN,,0.00,25.2,WeatherDisplay:10.37,2013-02-23 01:09:00,
2013-02-22 17:11:00,40.9,31.9,29.82,SSE,157,4.6,4.6,70,0.00,BKN,,0.00,21.6,WeatherDisplay:10.37,2013-02-23 01:11:00,
2013-02-22 17:12:00,40.8,32.1,29.82,SE,142,3.5,3.5,71,0.00,BKN,,0.00,21.6,WeatherDisplay:10.37,2013-02-23 01:12:00,
2013-02-22 17:14:00,40.7,31.7,29.82,ESE,107,9.2,9.2,70,0.00,BKN,,0.00,21.6,WeatherDisplay:10.37,2013-02-23 01:14:00,
2013-02-22 17:17:00,40.6,31.6,29.81,ESE,117,9.0,9.0,70,0.00,BKN,,0.00,19.2,WeatherDisplay:10.37,2013-02-23 01:17:00,
2013-02-22 17:20:00,40.6,31.6,29.80,ESE,103,11.5,11.5,70,0.00,SCT,,0.00,21.6,WeatherDisplay:10.37,2013-02-23 01:20:00,
2013-02-22 17:22:00,40.5,31.5,29.81,SE,141,5.8,5.8,70,0.00,FEW,,0.00,31.2,WeatherDisplay:10.37,2013-02-23 01:22:00,
2013-02-22 17:25:00,40.4,31.7,29.81,East,101,4.6,4.6,71,0.00,CLR,,0.00,36.0,WeatherDisplay:10.37,2013-02-23 01:25:00,
2013-02-22 17:27:00,40.4,31.7,29.81,ESE,116,6.9,6.9,71,0.00,CLR,,0.00,22.8,WeatherDisplay:10.37,2013-02-23 01:27:00,
2013-02-22 17:28:00,40.4,31.4,29.81,SE,127,4.6,4.6,70,0.00,CLR,,0.00,21.6,WeatherDisplay:10.37,2013-02-23 01:28:00,
2013-02-22 17:30:00,40.4,31.7,29.81,SE,130,3.5,3.5,71,0.00,CLR,,0.00,19.2,WeatherDisplay:10.37,2013-02-23 01:30:00,
2013-02-22 17:32:00,40.4,31.7,29.81,SE,130,6.9,6.9,71,0.00,CLR,,0.00,19.2,WeatherDisplay:10.37,2013-02-23 01:32:00,
2013-02-22 17:33:00,40.3,31.6,29.81,SE,126,4.6,4.6,71,0.00,CLR,,0.00,19.2,WeatherDisplay:10.37,2013-02-23 01:33:00,
2013-02-22 17:35:00,40.3,31.6,29.81,ESE,107,6.9,6.9,71,0.00,CLR,,0.00,16.8,WeatherDisplay:10.37,2013-02-23 01:35:00,
2013-02-22 17:37:00,40.3,31.6,29.81,SE,140,6.9,6.9,71,0.00,CLR,,0.00,13.2,WeatherDisplay:10.37,2013-02-23 01:37:00,
2013-02-22 17:38:00,40.3,31.6,29.81,ESE,119,9.2,9.2,71,0.00,CLR,,0.00,13.2,WeatherDisplay:10.37,2013-02-23 01:38:00,
2013-02-22 17:40:00,40.2,31.5,29.81,SSE,148,9.2,9.2,71,0.00,,,0.00,10.8,WeatherDisplay:10.37,2013-02-23 01:40:00,
2013-02-22 17:42:00,40.2,31.5,29.81,ESE,111,6.9,6.9,71,0.00,,,0.00,10.8,WeatherDisplay:10.37,2013-02-23 01:42:00,
2013-02-22 17:43:00,40.2,31.5,29.81,East,88,6.9,6.9,71,0.00,,,0.00,10.8,WeatherDisplay:10.37,2013-02-23 01:43:00,
2013-02-22 17:46:00,40.1,31.4,29.80,ESE,109,10.4,10.4,71,0.00,,,0.00,8.4,WeatherDisplay:10.37,2013-02-23 01:46:00,
2013-02-22 17:47:00,40.0,31.0,29.80,ESE,104,11.5,11.5,70,0.00,,,0.00,0.0,WeatherDisplay:10.37,2013-02-23 01:47:00,
2013-02-22 17:48:00,40.0,31.0,29.80,ESE,115,11.5,11.5,70,0.00,,,0.00,0.0,WeatherDisplay:10.37,2013-02-23 01:48:00,
2013-02-22 17:49:00,40.0,31.0,29.80,ESE,105,6.9,6.9,70,0.00,,,0.00,0.0,WeatherDisplay:10.37,2013-02-23 01:49:00,
2013-02-22 17:51:00,39.9,30.9,29.80,SSE,147,6.9,6.9,70,0.00,,,0.00,0.0,WeatherDisplay:10.37,2013-02-23 01:51:00,
2013-02-22 17:52:00,39.9,30.9,29.80,ESE,120,8.1,8.1,70,0.00,,,0.00,0.0,WeatherDisplay:10.37,2013-02-23 01:52:00,
2013-02-22 17:53:00,39.9,30.9,29.81,SE,144,8.1,8.1,70,0.00,,,0.00,0.0,WeatherDisplay:10.37,2013-02-23 01:53:00,
2013-02-22 17:54:00,39.9,30.9,29.81,SE,140,9.2,9.2,70,0.00,,,0.00,0.0,WeatherDisplay:10.37,2013-02-23 01:54:00,
2013-02-22 17:56:00,39.8,30.8,29.80,ESE,111,8.1,8.1,70,0.00,,,0.00,0.0,WeatherDisplay:10.37,2013-02-23 01:56:00,
2013-02-22 17:57:00,39.8,30.8,29.80,ESE,111,7.0,7.0,70,0.00,,,0.00,0.0,WeatherDisplay:10.37,2013-02-23 01:57:00,
2013-02-22 17:58:00,39.8,30.8,29.80,ESE,111,7.0,7.0,70,0.00,,,0.00,0.0,WeatherDisplay:10.37,2013-02-23 01:58:00,
2013-02-22 17:59:00,39.8,30.8,29.80,ESE,111,7.0,7.0,70,0.00,,,0.00,0.0,WeatherDisplay:10.37,2013-02-23 01:59:00,
2013-02-22 18:01:00,39.8,30.8,29.80,ESE,111,6.9,7.0,70,0.00,,,0.00,0.0,WeatherDisplay:10.37,2013-02-23 02:01:00,
2013-02-22 18:02:00,39.6,31.0,29.81,SSE,161,6.9,6.9,71,0.00,,,0.00,0.0,WeatherDisplay:10.37,2013-02-23 02:02:00,
2013-02-22 18:04:00,39.5,30.9,29.81,SE,127,3.5,3.5,71,0.00,,,0.00,0.0,WeatherDisplay:10.37,2013-02-23 02:04:00,
2013-02-22 18:06:00,39.5,30.9,29.81,SSE,161,3.5,3.5,71,0.00,,,0.00,0.0,WeatherDisplay:10.37,2013-02-23 02:06:00,
2013-02-22 18:08:00,39.5,30.9,29.81,SE,136,4.6,4.6,71,0.00,,,0.00,0.0,WeatherDisplay:10.37,2013-02-23 02:08:00,
2013-02-22 18:09:00,39.5,30.9,29.81,ESE,115,4.6,4.6,71,0.00,,,0.00,0.0,WeatherDisplay:10.37,2013-02-23 02:09:00,
2013-02-22 18:11:00,39.7,30.7,29.81,SSE,157,6.9,6.9,70,0.00,,,0.00,0.0,WeatherDisplay:10.37,2013-02-23 02:11:00,
2013-02-22 18:13:00,40.1,30.4,29.81,SSW,204,3.5,3.5,68,0.00,,,0.00,0.0,WeatherDisplay:10.37,2013-02-23 02:13:00,
2013-02-22 18:14:00,40.1,30.7,29.81,SSW,205,3.5,3.5,69,0.00,,,0.00,0.0,WeatherDisplay:10.37,2013-02-23 02:14:00,
2013-02-22 18:17:00,40.0,30.6,29.81,East,82,6.9,6.9,69,0.00,,,0.00,0.0,WeatherDisplay:10.37,2013-02-23 02:17:00,
2013-02-22 18:18:00,40.0,30.3,29.80,East,83,6.9,6.9,68,0.00,,,0.00,0.0,WeatherDisplay:10.37,2013-02-23 02:18:00,
2013-02-22 18:19:00,40.0,30.6,29.81,East,84,3.5,3.5,69,0.00,,,0.00,0.0,WeatherDisplay:10.37,2013-02-23 02:19:00,
2013-02-22 18:20:00,39.9,30.5,29.81,SW,224,3.0,3.0,69,0.00,,,0.00,0.0,WeatherDisplay:10.37,2013-02-23 02:20:00,
2013-02-22 18:22:00,40.4,29.9,29.81,WNW,286,9.2,9.2,66,0.00,,,0.00,0.0,WeatherDisplay:10.37,2013-02-23 02:22:00,
2013-02-22 18:23:00,40.5,29.3,29.81,WNW,288,9.2,9.2,64,0.00,,,0.00,0.0,WeatherDisplay:10.37,2013-02-23 02:23:00,
2013-02-22 18:24:00,40.8,29.6,29.81,SW,236,6.9,6.9,64,0.00,,,0.00,0.0,WeatherDisplay:10.37,2013-02-23 02:24:00,
2013-02-22 18:26:00,41.1,29.5,29.80,SSW,206,4.6,4.6,63,0.00,,,0.00,0.0,WeatherDisplay:10.37,2013-02-23 02:26:00,
2013-02-22 18:28:00,41.1,30.2,29.80,ESE,120,3.5,3.5,65,0.00,,,0.00,0.0,WeatherDisplay:10.37,2013-02-23 02:28:00,
2013-02-22 18:30:00,40.6,30.5,29.80,ESE,118,5.0,5.0,67,0.00,,,0.00,0.0,WeatherDisplay:10.37,2013-02-23 02:30:00,
2013-02-22 18:31:00,40.4,30.3,29.80,ESE,109,5.8,5.8,67,0.00,,,0.00,0.0,WeatherDisplay:10.37,2013-02-23 02:31:00,
2013-02-22 18:33:00,40.0,30.3,29.80,SSE,148,5.0,5.0,68,0.00,,,0.00,0.0,WeatherDisplay:10.37,2013-02-23 02:33:00,
2013-02-22 18:35:00,39.7,30.0,29.80,SSE,158,6.0,6.0,68,0.00,,,0.00,0.0,WeatherDisplay:10.37,2013-02-23 02:35:00,
2013-02-22 18:36:00,39.8,30.1,29.81,SW,217,6.0,7.6,68,0.00,,,0.00,0.0,WeatherDisplay:10.37,2013-02-23 02:36:00,
2013-02-22 18:38:00,39.9,29.8,29.80,SSE,148,9.2,9.2,67,0.00,,,0.00,0.0,WeatherDisplay:10.37,2013-02-23 02:38:00,
2013-02-22 18:41:00,39.9,29.8,29.80,SSE,167,6.9,6.9,67,0.00,,,0.00,0.0,WeatherDisplay:10.37,2013-02-23 02:41:00,
2013-02-22 18:43:00,39.8,29.7,29.80,SSW,202,5.0,5.0,67,0.00,,,0.00,0.0,WeatherDisplay:10.37,2013-02-23 02:43:00,
2013-02-22 18:46:00,40.0,29.6,29.80,SW,229,7.0,7.0,66,0.00,,,0.00,0.0,WeatherDisplay:10.37,2013-02-23 02:46:00,
2013-02-22 18:48:00,40.2,29.7,29.80,WSW,238,10.4,10.4,66,0.00,,,0.00,0.0,WeatherDisplay:10.37,2013-02-23 02:48:00,
2013-02-22 18:49:00,40.3,29.5,29.80,West,263,10.4,10.4,65,0.00,,,0.00,0.0,WeatherDisplay:10.37,2013-02-23 02:49:00,
2013-02-22 18:51:00,40.7,29.5,29.80,SSE,165,12.7,12.7,64,0.00,,,0.00,0.0,WeatherDisplay:10.37,2013-02-23 02:51:00,
2013-02-22 18:52:00,40.7,29.5,29.80,SSW,213,8.1,8.1,64,0.00,,,0.00,0.0,WeatherDisplay:10.37,2013-02-23 02:52:00,
2013-02-22 18:53:00,40.6,29.7,29.80,SW,229,6.0,6.0,65,0.00,,,0.00,0.0,WeatherDisplay:10.37,2013-02-23 02:53:00,
2013-02-22 18:55:00,40.4,29.6,29.80,South,180,5.8,5.8,65,0.00,,,0.00,0.0,WeatherDisplay:10.37,2013-02-23 02:55:00,
2013-02-22 18:56:00,40.2,29.7,29.80,SW,232,4.6,4.6,66,0.00,,,0.00,0.0,WeatherDisplay:10.37,2013-02-23 02:56:00,
2013-02-22 18:57:00,40.2,29.7,29.80,SW,234,4.6,4.6,66,0.00,,,0.00,0.0,WeatherDisplay:10.37,2013-02-23 02:57:00,
2013-02-22 18:58:00,40.1,29.6,29.81,SSW,211,6.9,6.9,66,0.00,,,0.00,0.0,WeatherDisplay:10.37,2013-02-23 02:58:00,
2013-02-22 19:00:00,40.0,29.6,29.80,SW,216,5.8,5.8,66,0.00,,,0.00,0.0,WeatherDisplay:10.37,2013-02-23 03:00:00,
2013-02-22 19:01:00,39.9,29.8,29.81,SW,227,6.9,6.9,67,0.00,,,0.00,0.0,WeatherDisplay:10.37,2013-02-23 03:01:00,
2013-02-22 19:02:00,39.9,29.8,29.80,SW,231,6.9,6.9,67,0.00,,,0.00,0.0,WeatherDisplay:10.37,2013-02-23 03:02:00,
2013-02-22 19:04:00,39.8,29.7,29.80,SW,231,3.5,3.5,67,0.00,,,0.00,0.0,WeatherDisplay:10.37,2013-02-23 03:04:00,
2013-02-22 19:06:00,39.7,29.6,29.80,SSW,205,6.0,6.0,67,0.00,,,0.00,0.0,WeatherDisplay:10.37,2013-02-23 03:06:00,
2013-02-22 19:08:00,39.6,29.9,29.81,SW,234,6.9,6.9,68,0.00,,,0.00,0.0,WeatherDisplay:10.37,2013-02-23 03:08:00,
2013-02-22 19:09:00,39.6,29.9,29.81,SW,219,5.8,5.8,68,0.00,,,0.00,0.0,WeatherDisplay:10.37,2013-02-23 03:09:00,
2013-02-22 19:11:00,39.6,29.9,29.81,SSW,209,4.6,4.6,68,0.00,,,0.00,0.0,WeatherDisplay:10.37,2013-02-23 03:11:00,
2013-02-22 19:13:00,39.5,29.8,29.81,SW,231,7.0,7.0,68,0.00,,,0.00,0.0,WeatherDisplay:10.37,2013-02-23 03:13:00,
2013-02-22 19:14:00,39.6,29.9,29.81,SW,232,6.9,6.9,68,0.00,,,0.00,0.0,WeatherDisplay:10.37,2013-02-23 03:14:00,
2013-02-22 19:16:00,39.5,29.8,29.81,SW,236,5.0,5.0,68,0.00,,,0.00,0.0,WeatherDisplay:10.37,2013-02-23 03:16:00,
2013-02-22 19:18:00,39.5,30.2,29.81,SW,230,8.1,8.1,69,0.00,,,0.00,0.0,WeatherDisplay:10.37,2013-02-23 03:18:00,
2013-02-22 19:19:00,39.5,30.2,29.81,SW,222,8.1,8.1,69,0.00,,,0.00,0.0,WeatherDisplay:10.37,2013-02-23 03:19:00,
2013-02-22 19:20:00,39.5,30.2,29.81,SW,219,8.0,8.0,69,0.00,,,0.00,0.0,WeatherDisplay:10.37,2013-02-23 03:20:00,
2013-02-22 19:22:00,39.5,30.2,29.81,SSW,194,6.9,6.9,69,0.00,,,0.00,0.0,WeatherDisplay:10.37,2013-02-23 03:22:00,
2013-02-22 19:23:00,39.4,30.1,29.81,WSW,242,8.1,8.1,69,0.00,,,0.00,0.0,WeatherDisplay:10.37,2013-02-23 03:23:00,
2013-02-22 19:24:00,39.4,30.1,29.81,SW,232,8.1,8.1,69,0.00,,,0.00,0.0,WeatherDisplay:10.37,2013-02-23 03:24:00,
2013-02-22 19:25:00,39.4,30.1,29.81,SW,219,8.1,8.1,69,0.00,,,0.00,0.0,WeatherDisplay:10.37,2013-02-23 03:25:00,
2013-02-22 19:27:00,39.3,30.3,29.81,SW,223,6.9,6.9,70,0.00,,,0.00,0.0,WeatherDisplay:10.37,2013-02-23 03:27:00,
2013-02-22 19:29:00,39.2,30.2,29.82,SSW,194,4.6,4.6,70,0.00,,,0.00,0.0,WeatherDisplay:10.37,2013-02-23 03:29:00,
2013-02-22 19:30:00,39.1,30.5,29.81,SSW,211,5.8,5.8,71,0.00,,,0.00,0.0,WeatherDisplay:10.37,2013-02-23 03:30:00,
2013-02-22 19:32:00,39.1,30.5,29.81,SW,232,4.0,4.0,71,0.00,,,0.00,0.0,WeatherDisplay:10.37,2013-02-23 03:32:00,
2013-02-22 19:34:00,39.1,30.5,29.81,SSW,196,5.8,5.8,71,0.00,,,0.00,0.0,WeatherDisplay:10.37,2013-02-23 03:34:00,
2013-02-22 19:36:00,39.0,30.7,29.82,SSW,205,6.9,6.9,72,0.00,,,0.00,0.0,WeatherDisplay:10.37,2013-02-23 03:36:00,
2013-02-22 19:37:00,39.1,30.8,29.83,WNW,293,8.1,8.1,72,0.00,,,0.00,0.0,WeatherDisplay:10.37,2013-02-23 03:37:00,
2013-02-22 19:39:00,39.1,30.5,29.83,NW,305,5.8,5.8,71,0.00,,,0.00,0.0,WeatherDisplay:10.37,2013-02-23 03:39:00,
2013-02-22 19:41:00,39.1,30.5,29.83,NW,312,7.0,7.0,71,0.00,,,0.00,0.0,WeatherDisplay:10.37,2013-02-23 03:41:00,
2013-02-22 19:43:00,39.0,30.4,29.83,WNW,295,11.5,11.5,71,0.00,,,0.00,0.0,WeatherDisplay:10.37,2013-02-23 03:43:00,
2013-02-22 19:44:00,38.9,30.3,29.83,WNW,286,11.5,11.5,71,0.00,,,0.00,0.0,WeatherDisplay:10.37,2013-02-23 03:44:00,
2013-02-22 19:47:00,38.6,30.7,29.83,WNW,286,19.0,19.0,73,0.00,,,0.00,0.0,WeatherDisplay:10.37,2013-02-23 03:47:00,
2013-02-22 19:48:00,38.3,30.7,29.84,West,278,19.6,19.6,74,0.00,,,0.00,0.0,WeatherDisplay:10.37,2013-02-23 03:48:00,
2013-02-22 19:49:00,38.0,30.8,29.84,WNW,294,16.0,16.0,75,0.00,,,0.00,0.0,WeatherDisplay:10.37,2013-02-23 03:49:00,
2013-02-22 19:52:00,37.3,31.1,29.84,West,277,18.4,18.4,78,0.00,,,0.00,0.0,WeatherDisplay:10.37,2013-02-23 03:52:00,
2013-02-22 19:53:00,36.8,31.2,29.85,WNW,282,18.4,18.4,80,0.00,,,0.00,0.0,WeatherDisplay:10.37,2013-02-23 03:53:00,
2013-02-22 19:54:00,36.6,31.0,29.85,NW,304,18.4,18.4,80,0.00,,,0.00,0.0,WeatherDisplay:10.37,2013-02-23 03:54:00,
2013-02-22 19:57:00,35.6,30.9,29.86,WNW,284,18.4,18.4,83,0.00,,,0.00,0.0,WeatherDisplay:10.37,2013-02-23 03:57:00,
2013-02-22 19:58:00,35.3,30.9,29.86,WNW,295,16.1,16.1,84,0.00,,,0.00,0.0,WeatherDisplay:10.37,2013-02-23 03:58:00,
2013-02-22 19:59:00,35.2,30.9,29.86,West,277,16.1,16.1,84,0.00,,,0.01,0.0,WeatherDisplay:10.37,2013-02-23 03:59:00,
2013-02-22 20:00:00,35.1,31.0,29.86,WNW,300,16.0,16.0,85,0.01,RA,,0.01,0.0,WeatherDisplay:10.37,2013-02-23 04:00:00,
2013-02-22 20:03:00,34.7,30.9,29.86,West,271,19.6,19.6,86,0.01,RA,,0.01,0.0,WeatherDisplay:10.37,2013-02-23 04:03:00,
2013-02-22 20:04:00,34.6,30.8,29.86,West,281,23.0,23.0,86,0.01,RA,,0.01,0.0,WeatherDisplay:10.37,2013-02-23 04:04:00,
2013-02-22 20:05:00,34.5,30.7,29.86,West,279,19.0,19.0,86,0.01,RA,,0.01,0.0,WeatherDisplay:10.37,2013-02-23 04:05:00,
2013-02-22 20:08:00,33.7,30.0,29.87,West,274,29.9,29.9,86,0.01,RA,,0.01,0.0,WeatherDisplay:10.37,2013-02-23 04:08:00,
2013-02-22 20:09:00,33.5,29.5,29.86,West,269,29.9,29.9,85,0.01,RA,,0.01,0.0,WeatherDisplay:10.37,2013-02-23 04:09:00,
2013-02-22 20:10:00,33.3,29.3,29.86,West,260,26.5,26.5,85,0.01,,,0.01,0.0,WeatherDisplay:10.37,2013-02-23 04:10:00,
2013-02-22 20:13:00,33.4,28.5,29.86,West,277,17.3,17.3,82,0.01,,,0.01,0.0,WeatherDisplay:10.37,2013-02-23 04:13:00,
2013-02-22 20:14:00,33.4,28.5,29.86,West,279,17.3,17.3,82,0.01,,,0.01,0.0,WeatherDisplay:10.37,2013-02-23 04:14:00,
2013-02-22 20:15:00,33.4,28.5,29.83,West,259,14.0,14.0,82,0.01,,,0.01,0.0,WeatherDisplay:10.37,2013-02-23 04:15:00,
2013-02-22 20:18:00,34.0,26.9,29.84,West,270,15.0,15.0,75,0.01,,,0.01,0.0,WeatherDisplay:10.37,2013-02-23 04:18:00,
2013-02-22 20:19:00,34.1,26.7,29.84,West,264,15.0,15.0,74,0.01,,,0.01,0.0,WeatherDisplay:10.37,2013-02-23 04:19:00,
2013-02-22 20:20:00,34.2,26.8,29.84,WSW,244,15.0,15.0,74,0.01,,,0.01,0.0,WeatherDisplay:10.37,2013-02-23 04:20:00,
2013-02-22 20:24:00,34.3,26.5,29.84,WSW,257,12.7,12.7,73,0.01,,,0.01,0.0,WeatherDisplay:10.37,2013-02-23 04:24:00,
2013-02-22 20:25:00,34.3,26.9,29.84,West,268,11.5,11.5,74,0.01,,,0.01,0.0,WeatherDisplay:10.37,2013-02-23 04:25:00,
2013-02-22 20:29:00,34.2,27.1,29.83,West,268,14.0,14.0,75,0.01,,,0.01,0.0,WeatherDisplay:10.37,2013-02-23 04:29:00,
2013-02-22 20:30:00,34.3,27.2,29.84,WSW,248,13.8,13.8,75,0.01,,,0.01,0.0,WeatherDisplay:10.37,2013-02-23 04:30:00,
2013-02-22 20:34:00,34.2,27.7,29.84,West,281,11.5,11.5,77,0.01,,,0.01,0.0,WeatherDisplay:10.37,2013-02-23 04:34:00,
2013-02-22 20:35:00,34.3,27.8,29.84,West,274,11.5,11.5,77,0.01,,,0.01,0.0,WeatherDisplay:10.37,2013-02-23 04:35:00,
2013-02-22 20:39:00,34.3,27.8,29.84,WNW,292,11.5,11.5,77,0.01,,,0.01,0.0,WeatherDisplay:10.37,2013-02-23 04:39:00,
2013-02-22 20:40:00,34.3,27.8,29.84,West,267,11.5,11.5,77,0.01,,,0.01,0.0,WeatherDisplay:10.37,2013-02-23 04:40:00,
2013-02-22 20:45:00,34.3,27.5,29.84,West,266,9.2,9.2,76,0.01,,,0.01,0.0,WeatherDisplay:10.37,2013-02-23 04:45:00,
2013-02-22 20:46:00,34.3,27.2,29.84,West,267,8.1,8.1,75,0.01,,,0.01,0.0,WeatherDisplay:10.37,2013-02-23 04:46:00,
2013-02-22 20:50:00,34.4,27.0,29.84,WSW,250,9.2,9.2,74,0.01,,,0.01,0.0,WeatherDisplay:10.37,2013-02-23 04:50:00,
2013-02-22 20:51:00,34.4,27.0,29.84,WSW,248,10.4,10.4,74,0.01,,,0.01,0.0,WeatherDisplay:10.37,2013-02-23 04:51:00,
2013-02-22 20:55:00,34.3,26.5,29.83,SW,224,10.4,10.4,73,0.01,,,0.01,0.0,WeatherDisplay:10.37,2013-02-23 04:55:00,
2013-02-22 20:56:00,34.3,26.2,29.83,WSW,255,10.4,10.4,72,0.01,,,0.01,0.0,WeatherDisplay:10.37,2013-02-23 04:56:00,
2013-02-22 21:00:00,34.3,25.9,29.83,SSW,207,11.5,11.5,71,0.00,,,0.01,0.0,WeatherDisplay:10.37,2013-02-23 05:00:00,
2013-02-22 21:05:00,34.4,25.6,29.83,SW,225,15.0,15.0,70,0.00,,,0.01,0.0,WeatherDisplay:10.37,2013-02-23 05:05:00,
2013-02-22 21:10:00,34.3,25.2,29.84,WNW,289,11.5,11.5,69,0.00,,,0.01,0.0,WeatherDisplay:10.37,2013-02-23 05:10:00,
2013-02-22 21:15:00,33.7,25.3,29.85,WSW,247,6.9,6.9,71,0.00,,,0.01,0.0,WeatherDisplay:10.37,2013-02-23 05:15:00,
2013-02-22 21:16:00,33.7,25.3,29.85,SW,222,9.2,9.2,71,0.00,,,0.01,0.0,WeatherDisplay:10.37,2013-02-23 05:16:00,
2013-02-22 21:20:00,33.3,25.6,29.85,West,265,12.7,12.7,73,0.00,,,0.01,0.0,WeatherDisplay:10.37,2013-02-23 05:20:00,
2013-02-22 21:21:00,33.3,25.6,29.85,West,280,17.3,17.3,73,0.00,,,0.01,0.0,WeatherDisplay:10.37,2013-02-23 05:21:00,
2013-02-22 21:25:00,33.3,25.2,29.86,WNW,285,12.7,12.7,72,0.00,,,0.01,0.0,WeatherDisplay:10.37,2013-02-23 05:25:00,
2013-02-22 21:26:00,33.4,25.3,29.86,West,275,11.5,11.5,72,0.00,,,0.01,0.0,WeatherDisplay:10.37,2013-02-23 05:26:00,
2013-02-22 21:30:00,33.4,25.7,29.87,WNW,286,12.0,12.0,73,0.00,,,0.01,0.0,WeatherDisplay:10.37,2013-02-23 05:30:00,
2013-02-22 21:31:00,33.4,25.7,29.88,NW,306,12.7,12.7,73,0.00,,,0.01,0.0,WeatherDisplay:10.37,2013-02-23 05:31:00,
2013-02-22 21:35:00,33.4,26.3,29.88,West,268,17.3,17.3,75,0.00,,,0.01,0.0,WeatherDisplay:10.37,2013-02-23 05:35:00,
2013-02-22 21:36:00,33.4,26.3,29.88,West,270,17.3,17.3,75,0.00,,,0.01,0.0,WeatherDisplay:10.37,2013-02-23 05:36:00,
2013-02-22 21:40:00,33.3,27.2,29.89,West,274,18.4,18.4,78,0.00,,,0.01,0.0,WeatherDisplay:10.37,2013-02-23 05:40:00,
2013-02-22 21:41:00,33.3,27.2,29.89,WNW,302,18.4,18.4,78,0.00,,,0.01,0.0,WeatherDisplay:10.37,2013-02-23 05:41:00,
2013-02-22 21:45:00,32.6,27.7,29.90,West,266,12.7,12.7,82,0.00,,,0.01,0.0,WeatherDisplay:10.37,2013-02-23 05:45:00,
2013-02-22 21:46:00,32.6,27.7,29.90,WNW,290,12.7,12.7,82,0.00,,,0.01,0.0,WeatherDisplay:10.37,2013-02-23 05:46:00,
2013-02-22 21:50:00,31.9,28.2,29.91,WSW,248,18.4,18.4,86,0.00,,,0.01,0.0,WeatherDisplay:10.37,2013-02-23 05:50:00,
2013-02-22 21:51:00,31.8,28.1,29.91,WNW,284,18.4,18.4,86,0.00,,,0.01,0.0,WeatherDisplay:10.37,2013-02-23 05:51:00,
2013-02-22 21:52:00,31.7,28.3,29.91,West,271,11.5,11.5,87,0.00,,,0.01,0.0,WeatherDisplay:10.37,2013-02-23 05:52:00,
2013-02-22 21:55:00,31.5,28.4,29.91,West,280,19.6,19.6,88,0.00,,,0.01,0.0,WeatherDisplay:10.37,2013-02-23 05:55:00,
2013-02-22 21:56:00,31.6,28.2,29.91,West,281,19.6,19.6,87,0.00,,,0.01,0.0,WeatherDisplay:10.37,2013-02-23 05:56:00,
2013-02-22 21:57:00,31.6,28.2,29.91,West,267,19.6,19.6,87,0.00,,,0.01,0.0,WeatherDisplay:10.37,2013-02-23 05:57:00,
2013-02-22 22:00:00,31.5,28.1,29.91,WNW,289,17.3,17.3,87,0.00,,,0.01,0.0,WeatherDisplay:10.37,2013-02-23 06:00:00,
2013-02-22 22:02:00,31.5,27.8,29.91,WNW,284,19.6,19.6,86,0.00,CLR,,0.01,0.0,WeatherDisplay:10.37,2013-02-23 06:02:00,
2013-02-22 22:05:00,31.5,27.2,29.92,West,280,17.3,17.3,84,0.00,CLR,,0.01,0.0,WeatherDisplay:10.37,2013-02-23 06:05:00,
2013-02-22 22:07:00,31.5,27.2,29.92,West,270,12.7,12.7,84,0.00,CLR,,0.01,0.0,WeatherDisplay:10.37,2013-02-23 06:07:00,
2013-02-22 22:11:00,31.5,26.6,29.91,WNW,290,13.8,13.8,82,0.00,CLR,,0.01,0.0,WeatherDisplay:10.37,2013-02-23 06:11:00,
2013-02-22 22:12:00,31.5,26.6,29.91,WNW,296,13.8,13.8,82,0.00,CLR,,0.01,0.0,WeatherDisplay:10.37,2013-02-23 06:12:00,
2013-02-22 22:13:00,31.5,26.3,29.91,WSW,252,11.5,11.5,81,0.00,CLR,,0.01,0.0,WeatherDisplay:10.37,2013-02-23 06:13:00,
2013-02-22 22:16:00,31.4,25.9,29.92,WNW,283,9.2,11.2,80,0.00,CLR,,0.01,0.0,WeatherDisplay:10.37,2013-02-23 06:16:00,
2013-02-22 22:17:00,31.3,25.5,29.92,WSW,257,13.8,13.8,79,0.00,CLR,,0.01,0.0,WeatherDisplay:10.37,2013-02-23 06:17:00,
2013-02-22 22:18:00,31.3,25.5,29.92,WNW,286,12.0,12.0,79,0.00,CLR,,0.01,0.0,WeatherDisplay:10.37,2013-02-23 06:18:00,
2013-02-22 22:21:00,31.2,25.4,29.92,WNW,291,13.8,13.8,79,0.00,CLR,,0.01,0.0,WeatherDisplay:10.37,2013-02-23 06:21:00,
2013-02-22 22:22:00,31.2,25.4,29.92,West,276,13.8,13.8,79,0.00,CLR,,0.01,0.0,WeatherDisplay:10.37,2013-02-23 06:22:00,
2013-02-22 22:23:00,31.2,25.4,29.92,West,277,13.8,13.8,79,0.00,CLR,,0.01,0.0,WeatherDisplay:10.37,2013-02-23 06:23:00,
2013-02-22 22:26:00,31.2,25.4,29.92,West,281,11.5,11.5,79,0.00,CLR,,0.01,0.0,WeatherDisplay:10.37,2013-02-23 06:26:00,
2013-02-22 22:27:00,31.2,25.4,29.92,West,265,11.5,11.5,79,0.00,CLR,,0.01,0.0,WeatherDisplay:10.37,2013-02-23 06:27:00,
2013-02-22 22:28:00,31.1,25.0,29.92,WNW,282,16.1,16.1,78,0.00,CLR,,0.01,0.0,WeatherDisplay:10.37,2013-02-23 06:28:00,
2013-02-22 22:29:00,31.1,25.0,29.92,WNW,289,16.1,16.1,78,0.00,CLR,,0.01,0.0,WeatherDisplay:10.37,2013-02-23 06:29:00,
2013-02-22 22:32:00,31.1,25.0,29.92,West,276,11.5,11.5,78,0.00,CLR,,0.01,0.0,WeatherDisplay:10.37,2013-02-23 06:32:00,
2013-02-22 22:33:00,31.0,24.9,29.92,WNW,283,14.0,14.0,78,0.00,CLR,,0.01,0.0,WeatherDisplay:10.37,2013-02-23 06:33:00,
2013-02-22 22:34:00,31.0,24.9,29.92,West,279,12.7,12.7,78,0.00,CLR,,0.01,0.0,WeatherDisplay:10.37,2013-02-23 06:34:00,
2013-02-22 22:37:00,31.0,25.2,29.92,WNW,294,13.8,13.8,79,0.00,CLR,,0.01,0.0,WeatherDisplay:10.37,2013-02-23 06:37:00,
2013-02-22 22:39:00,30.9,25.2,29.92,West,267,11.5,11.5,79,0.00,CLR,,0.01,0.0,WeatherDisplay:10.37,2013-02-23 06:39:00,
2013-02-22 22:42:00,30.7,25.6,29.92,WSW,250,11.5,11.5,81,0.00,CLR,,0.01,0.0,WeatherDisplay:10.37,2013-02-23 06:42:00,
2013-02-22 22:44:00,30.6,25.5,29.92,West,265,12.7,12.7,81,0.00,CLR,,0.01,0.0,WeatherDisplay:10.37,2013-02-23 06:44:00,
2013-02-22 22:45:00,30.5,25.1,29.92,West,268,11.5,11.5,80,0.00,CLR,,0.01,0.0,WeatherDisplay:10.37,2013-02-23 06:45:00,
2013-02-22 22:47:00,30.5,25.1,29.91,West,276,11.5,11.5,80,0.00,CLR,,0.01,0.0,WeatherDisplay:10.37,2013-02-23 06:47:00,
2013-02-22 22:48:00,30.6,24.9,29.91,West,260,15.0,15.0,79,0.00,CLR,,0.01,0.0,WeatherDisplay:10.37,2013-02-23 06:48:00,
2013-02-22 22:49:00,30.6,24.9,29.92,WNW,286,15.0,15.0,79,0.00,CLR,,0.01,0.0,WeatherDisplay:10.37,2013-02-23 06:49:00,
2013-02-22 22:50:00,30.6,24.9,29.92,West,270,15.0,15.0,79,0.00,CLR,,0.01,0.0,WeatherDisplay:10.37,2013-02-23 06:50:00,
2013-02-22 22:53:00,30.5,24.8,29.92,West,269,9.2,9.2,79,0.00,CLR,,0.01,0.0,WeatherDisplay:10.37,2013-02-23 06:53:00,
2013-02-22 22:54:00,30.5,24.8,29.92,West,272,11.5,11.5,79,0.00,CLR,,0.01,0.0,WeatherDisplay:10.37,2013-02-23 06:54:00,
2013-02-22 22:56:00,30.5,24.8,29.92,WSW,254,10.4,10.4,79,0.00,CLR,,0.01,0.0,WeatherDisplay:10.37,2013-02-23 06:56:00,
2013-02-22 22:58:00,30.5,24.5,29.92,West,267,12.0,12.0,78,0.00,CLR,,0.01,0.0,WeatherDisplay:10.37,2013-02-23 06:58:00,
2013-02-22 22:59:00,30.5,24.5,29.92,WNW,290,10.4,10.4,78,0.00,CLR,,0.01,0.0,WeatherDisplay:10.37,2013-02-23 06:59:00,
2013-02-22 23:01:00,30.5,24.5,29.93,West,275,10.0,10.0,78,0.00,CLR,,0.01,0.0,WeatherDisplay:10.37,2013-02-23 07:01:00,
2013-02-22 23:03:00,30.5,24.1,29.93,West,279,11.5,11.5,77,0.00,CLR,,0.01,0.0,WeatherDisplay:10.37,2013-02-23 07:03:00,
2013-02-22 23:04:00,30.5,24.1,29.93,West,276,11.5,11.5,77,0.00,CLR,,0.01,0.0,WeatherDisplay:10.37,2013-02-23 07:04:00,
2013-02-22 23:06:00,30.2,23.9,29.93,WNW,295,8.1,8.1,77,0.00,CLR,,0.01,0.0,WeatherDisplay:10.37,2013-02-23 07:06:00,
2013-02-22 23:08:00,30.2,23.9,29.94,WSW,253,11.5,11.5,77,0.00,CLR,,0.01,0.0,WeatherDisplay:10.37,2013-02-23 07:08:00,
2013-02-22 23:09:00,30.2,23.9,29.94,West,263,11.5,11.5,77,0.00,CLR,,0.01,0.0,WeatherDisplay:10.37,2013-02-23 07:09:00,
2013-02-22 23:12:00,30.4,23.7,29.94,West,269,12.7,12.7,76,0.00,CLR,,0.01,0.0,WeatherDisplay:10.37,2013-02-23 07:12:00,
2013-02-22 23:14:00,30.5,23.5,29.94,West,269,11.5,11.5,75,0.00,CLR,,0.01,0.0,WeatherDisplay:10.37,2013-02-23 07:14:00,
2013-02-22 23:17:00,30.5,23.5,29.94,WSW,258,8.1,8.1,75,0.00,CLR,,0.01,0.0,WeatherDisplay:10.37,2013-02-23 07:17:00,
2013-02-22 23:19:00,30.4,23.7,29.95,West,263,8.0,8.0,76,0.00,CLR,,0.01,0.0,WeatherDisplay:10.37,2013-02-23 07:19:00,
2013-02-22 23:20:00,30.3,24.0,29.95,WSW,256,11.5,11.5,77,0.00,CLR,,0.01,0.0,WeatherDisplay:10.37,2013-02-23 07:20:00,
2013-02-22 23:22:00,30.3,24.0,29.94,West,265,10.4,10.4,77,0.00,CLR,,0.01,0.0,WeatherDisplay:10.37,2013-02-23 07:22:00,
2013-02-22 23:24:00,30.3,24.3,29.95,West,267,8.1,8.1,78,0.00,CLR,,0.01,0.0,WeatherDisplay:10.37,2013-02-23 07:24:00,
2013-02-22 23:25:00,30.2,24.2,29.95,West,269,9.2,9.2,78,0.00,CLR,,0.01,0.0,WeatherDisplay:10.37,2013-02-23 07:25:00,
2013-02-22 23:27:00,30.2,24.2,29.95,West,275,11.5,11.5,78,0.00,CLR,,0.01,0.0,WeatherDisplay:10.37,2013-02-23 07:27:00,
2013-02-22 23:29:00,30.1,24.1,29.95,West,281,11.5,11.5,78,0.00,CLR,,0.01,0.0,WeatherDisplay:10.37,2013-02-23 07:29:00,
2013-02-22 23:30:00,30.1,24.1,29.95,WNW,290,15.0,15.0,78,0.00,CLR,,0.01,0.0,WeatherDisplay:10.37,2013-02-23 07:30:00,
2013-02-22 23:32:00,30.1,24.1,29.95,WSW,254,15.0,15.0,78,0.00,CLR,,0.01,0.0,WeatherDisplay:10.37,2013-02-23 07:32:00,
2013-02-22 23:34:00,30.0,24.3,29.95,West,259,8.1,8.1,79,0.00,CLR,,0.01,0.0,WeatherDisplay:10.37,2013-02-23 07:34:00,
2013-02-22 23:35:00,30.0,24.3,29.95,West,263,9.2,9.2,79,0.00,CLR,,0.01,0.0,WeatherDisplay:10.37,2013-02-23 07:35:00,
2013-02-22 23:38:00,29.8,24.1,29.95,West,277,6.9,6.9,79,0.00,CLR,,0.01,0.0,WeatherDisplay:10.37,2013-02-23 07:38:00,
2013-02-22 23:39:00,29.6,24.2,29.95,West,277,9.2,9.2,80,0.00,CLR,,0.01,0.0,WeatherDisplay:10.37,2013-02-23 07:39:00,
2013-02-22 23:40:00,29.6,24.2,29.95,West,279,9.0,9.0,80,0.00,CLR,,0.01,0.0,WeatherDisplay:10.37,2013-02-23 07:40:00,
2013-02-22 23:43:00,29.4,24.0,29.95,West,271,8.1,8.1,80,0.00,CLR,,0.01,0.0,WeatherDisplay:10.37,2013-02-23 07:43:00,
2013-02-22 23:45:00,29.3,24.2,29.95,West,266,8.1,8.1,81,0.00,CLR,,0.01,0.0,WeatherDisplay:10.37,2013-02-23 07:45:00,
2013-02-22 23:48:00,29.1,24.0,29.95,West,267,4.6,4.6,81,0.00,CLR,,0.01,0.0,WeatherDisplay:10.37,2013-02-23 07:48:00,
2013-02-22 23:50:00,28.9,23.8,29.95,West,265,3.5,3.5,81,0.00,CLR,,0.01,0.0,WeatherDisplay:10.37,2013-02-23 07:50:00,
2013-02-22 23:51:00,28.8,24.0,29.95,West,265,3.5,3.5,82,0.00,CLR,,0.01,0.0,WeatherDisplay:10.37,2013-02-23 07:51:00,
2013-02-22 23:53:00,28.8,24.0,29.95,West,260,5.8,5.8,82,0.00,CLR,,0.01,0.0,WeatherDisplay:10.37,2013-02-23 07:53:00,
2013-02-22 23:55:00,28.7,24.2,29.95,West,261,3.5,3.5,83,0.00,CLR,,0.01,0.0,WeatherDisplay:10.37,2013-02-23 07:55:00,
2013-02-22 23:56:00,28.7,24.2,29.95,West,261,3.5,3.5,83,0.00,CLR,,0.01,0.0,WeatherDisplay:10.37,2013-02-23 07:56:00,
2013-02-22 23:58:00,28.6,24.1,29.95,West,267,4.6,4.6,83,0.00,CLR,,0.01,0.0,WeatherDisplay:10.37,2013-02-23 07:58:00,